<?xml version="1.0" encoding="UTF-8" standalone="no" ?>
<gpx xmlns="http://www.topografix.com/GPX/1/1" xmlns:xsi="http://www.w3.org/2001/XMLSchema-instance" xsi:schemaLocation="http://www.topografix.com/GPX/1/1 http://www.topografix.com/GPX/1/1/gpx.xsd" version="1.1" creator="VisuGPX - https://www.visugpx.com">
  <metadata>
    <name>VTT - XC Vencoise 2015</name>
    <desc><![CDATA[Parcours Adulte / cadet - VTT XC Vencoise 2015]]></desc>
  </metadata>
  <trk>
    <name><![CDATA[Vence Cyclisme]]></name>
    <trkseg>
      <trkpt lat="43.71335" lon="7.088">
        <ele>238.19999694824</ele>
        <time>2014-12-29T13:58:25.000Z</time>
      </trkpt>
      <trkpt lat="43.71336" lon="7.08799">
        <ele>238.19999694824</ele>
        <time>2014-12-29T13:58:26.000Z</time>
      </trkpt>
      <trkpt lat="43.71326" lon="7.08796">
        <ele>238.39999389648</ele>
        <time>2014-12-29T13:58:40.000Z</time>
      </trkpt>
      <trkpt lat="43.7132" lon="7.08794">
        <ele>238.39999389648</ele>
        <time>2014-12-29T13:58:43.000Z</time>
      </trkpt>
      <trkpt lat="43.7131" lon="7.08801">
        <ele>238.39999389648</ele>
        <time>2014-12-29T13:58:48.000Z</time>
      </trkpt>
      <trkpt lat="43.71298" lon="7.08809">
        <ele>238.80000305176</ele>
        <time>2014-12-29T13:58:54.000Z</time>
      </trkpt>
      <trkpt lat="43.71295" lon="7.08811">
        <ele>239.19999694824</ele>
        <time>2014-12-29T13:58:55.000Z</time>
      </trkpt>
      <trkpt lat="43.71292" lon="7.08813">
        <ele>239.60000610352</ele>
        <time>2014-12-29T13:58:56.000Z</time>
      </trkpt>
      <trkpt lat="43.71289" lon="7.08815">
        <ele>240.19999694824</ele>
        <time>2014-12-29T13:58:57.000Z</time>
      </trkpt>
      <trkpt lat="43.71286" lon="7.08817">
        <ele>240.60000610352</ele>
        <time>2014-12-29T13:58:58.000Z</time>
      </trkpt>
      <trkpt lat="43.71276" lon="7.08828">
        <ele>240.60000610352</ele>
        <time>2014-12-29T13:59:04.000Z</time>
      </trkpt>
      <trkpt lat="43.71265" lon="7.08841">
        <ele>240.60000610352</ele>
        <time>2014-12-29T13:59:11.000Z</time>
      </trkpt>
      <trkpt lat="43.71251" lon="7.08854">
        <ele>240.60000610352</ele>
        <time>2014-12-29T13:59:19.000Z</time>
      </trkpt>
      <trkpt lat="43.71232" lon="7.08863">
        <ele>240.60000610352</ele>
        <time>2014-12-29T13:59:28.000Z</time>
      </trkpt>
      <trkpt lat="43.71227" lon="7.08866">
        <ele>240.60000610352</ele>
        <time>2014-12-29T13:59:30.000Z</time>
      </trkpt>
      <trkpt lat="43.71224" lon="7.08873">
        <ele>240.60000610352</ele>
        <time>2014-12-29T13:59:33.000Z</time>
      </trkpt>
      <trkpt lat="43.71222" lon="7.08875">
        <ele>241</ele>
        <time>2014-12-29T13:59:34.000Z</time>
      </trkpt>
      <trkpt lat="43.71221" lon="7.08878">
        <ele>241.39999389648</ele>
        <time>2014-12-29T13:59:35.000Z</time>
      </trkpt>
      <trkpt lat="43.7122" lon="7.0888">
        <ele>242</ele>
        <time>2014-12-29T13:59:36.000Z</time>
      </trkpt>
      <trkpt lat="43.71219" lon="7.08882">
        <ele>242.39999389648</ele>
        <time>2014-12-29T13:59:37.000Z</time>
      </trkpt>
      <trkpt lat="43.71218" lon="7.08885">
        <ele>242.80000305176</ele>
        <time>2014-12-29T13:59:38.000Z</time>
      </trkpt>
      <trkpt lat="43.71217" lon="7.08892">
        <ele>242.80000305176</ele>
        <time>2014-12-29T13:59:40.000Z</time>
      </trkpt>
      <trkpt lat="43.71215" lon="7.08899">
        <ele>243.19999694824</ele>
        <time>2014-12-29T13:59:43.000Z</time>
      </trkpt>
      <trkpt lat="43.71214" lon="7.08901">
        <ele>243.60000610352</ele>
        <time>2014-12-29T13:59:44.000Z</time>
      </trkpt>
      <trkpt lat="43.71213" lon="7.08903">
        <ele>244.19999694824</ele>
        <time>2014-12-29T13:59:45.000Z</time>
      </trkpt>
      <trkpt lat="43.71211" lon="7.08903">
        <ele>244.60000610352</ele>
        <time>2014-12-29T13:59:46.000Z</time>
      </trkpt>
      <trkpt lat="43.71208" lon="7.08904">
        <ele>245</ele>
        <time>2014-12-29T13:59:47.000Z</time>
      </trkpt>
      <trkpt lat="43.71201" lon="7.08904">
        <ele>245</ele>
        <time>2014-12-29T13:59:51.000Z</time>
      </trkpt>
      <trkpt lat="43.71186" lon="7.08904">
        <ele>245</ele>
        <time>2014-12-29T13:59:56.000Z</time>
      </trkpt>
      <trkpt lat="43.71173" lon="7.08916">
        <ele>245</ele>
        <time>2014-12-29T14:00:03.000Z</time>
      </trkpt>
      <trkpt lat="43.71163" lon="7.08918">
        <ele>245</ele>
        <time>2014-12-29T14:00:08.000Z</time>
      </trkpt>
      <trkpt lat="43.71152" lon="7.08912">
        <ele>245</ele>
        <time>2014-12-29T14:00:14.000Z</time>
      </trkpt>
      <trkpt lat="43.71148" lon="7.08913">
        <ele>245</ele>
        <time>2014-12-29T14:00:16.000Z</time>
      </trkpt>
      <trkpt lat="43.71143" lon="7.08917">
        <ele>245</ele>
        <time>2014-12-29T14:00:19.000Z</time>
      </trkpt>
      <trkpt lat="43.71142" lon="7.08917">
        <ele>244.60000610352</ele>
        <time>2014-12-29T14:00:20.000Z</time>
      </trkpt>
      <trkpt lat="43.71138" lon="7.08919">
        <ele>244.19999694824</ele>
        <time>2014-12-29T14:00:21.000Z</time>
      </trkpt>
      <trkpt lat="43.71136" lon="7.08919">
        <ele>243.80000305176</ele>
        <time>2014-12-29T14:00:22.000Z</time>
      </trkpt>
      <trkpt lat="43.71134" lon="7.08917">
        <ele>243.39999389648</ele>
        <time>2014-12-29T14:00:23.000Z</time>
      </trkpt>
      <trkpt lat="43.71131" lon="7.08915">
        <ele>243</ele>
        <time>2014-12-29T14:00:24.000Z</time>
      </trkpt>
      <trkpt lat="43.71118" lon="7.08913">
        <ele>243</ele>
        <time>2014-12-29T14:00:30.000Z</time>
      </trkpt>
      <trkpt lat="43.71107" lon="7.0892">
        <ele>243</ele>
        <time>2014-12-29T14:00:36.000Z</time>
      </trkpt>
      <trkpt lat="43.71089" lon="7.08914">
        <ele>243</ele>
        <time>2014-12-29T14:00:43.000Z</time>
      </trkpt>
      <trkpt lat="43.71081" lon="7.08929">
        <ele>243</ele>
        <time>2014-12-29T14:00:49.000Z</time>
      </trkpt>
      <trkpt lat="43.71067" lon="7.08923">
        <ele>243</ele>
        <time>2014-12-29T14:00:55.000Z</time>
      </trkpt>
      <trkpt lat="43.71055" lon="7.08919">
        <ele>243</ele>
        <time>2014-12-29T14:01:00.000Z</time>
      </trkpt>
      <trkpt lat="43.71049" lon="7.08916">
        <ele>243</ele>
        <time>2014-12-29T14:01:03.000Z</time>
      </trkpt>
      <trkpt lat="43.71042" lon="7.08915">
        <ele>243</ele>
        <time>2014-12-29T14:01:07.000Z</time>
      </trkpt>
      <trkpt lat="43.71037" lon="7.08921">
        <ele>243</ele>
        <time>2014-12-29T14:01:13.000Z</time>
      </trkpt>
      <trkpt lat="43.71035" lon="7.08923">
        <ele>243.39999389648</ele>
        <time>2014-12-29T14:01:15.000Z</time>
      </trkpt>
      <trkpt lat="43.71034" lon="7.08925">
        <ele>243.80000305176</ele>
        <time>2014-12-29T14:01:16.000Z</time>
      </trkpt>
      <trkpt lat="43.71033" lon="7.08926">
        <ele>244.19999694824</ele>
        <time>2014-12-29T14:01:17.000Z</time>
      </trkpt>
      <trkpt lat="43.71032" lon="7.08927">
        <ele>244.60000610352</ele>
        <time>2014-12-29T14:01:18.000Z</time>
      </trkpt>
      <trkpt lat="43.71031" lon="7.08929">
        <ele>245</ele>
        <time>2014-12-29T14:01:19.000Z</time>
      </trkpt>
      <trkpt lat="43.71028" lon="7.08932">
        <ele>245</ele>
        <time>2014-12-29T14:01:21.000Z</time>
      </trkpt>
      <trkpt lat="43.71025" lon="7.08936">
        <ele>245</ele>
        <time>2014-12-29T14:01:24.000Z</time>
      </trkpt>
      <trkpt lat="43.71021" lon="7.08943">
        <ele>245</ele>
        <time>2014-12-29T14:01:28.000Z</time>
      </trkpt>
      <trkpt lat="43.71001" lon="7.08953">
        <ele>245.39999389648</ele>
        <time>2014-12-29T14:01:35.000Z</time>
      </trkpt>
      <trkpt lat="43.70998" lon="7.08954">
        <ele>246</ele>
        <time>2014-12-29T14:01:36.000Z</time>
      </trkpt>
      <trkpt lat="43.70995" lon="7.08955">
        <ele>246.39999389648</ele>
        <time>2014-12-29T14:01:37.000Z</time>
      </trkpt>
      <trkpt lat="43.70993" lon="7.08955">
        <ele>246.80000305176</ele>
        <time>2014-12-29T14:01:38.000Z</time>
      </trkpt>
      <trkpt lat="43.70991" lon="7.08956">
        <ele>247.19999694824</ele>
        <time>2014-12-29T14:01:39.000Z</time>
      </trkpt>
      <trkpt lat="43.7099" lon="7.08956">
        <ele>247.19999694824</ele>
        <time>2014-12-29T14:01:40.000Z</time>
      </trkpt>
      <trkpt lat="43.7098" lon="7.0896">
        <ele>247.19999694824</ele>
        <time>2014-12-29T14:01:46.000Z</time>
      </trkpt>
      <trkpt lat="43.70976" lon="7.08962">
        <ele>247.19999694824</ele>
        <time>2014-12-29T14:01:48.000Z</time>
      </trkpt>
      <trkpt lat="43.70972" lon="7.08968">
        <ele>247.19999694824</ele>
        <time>2014-12-29T14:01:52.000Z</time>
      </trkpt>
      <trkpt lat="43.70965" lon="7.08972">
        <ele>247.19999694824</ele>
        <time>2014-12-29T14:01:55.000Z</time>
      </trkpt>
      <trkpt lat="43.70952" lon="7.08979">
        <ele>247.19999694824</ele>
        <time>2014-12-29T14:02:03.000Z</time>
      </trkpt>
      <trkpt lat="43.70938" lon="7.08989">
        <ele>247.19999694824</ele>
        <time>2014-12-29T14:02:09.000Z</time>
      </trkpt>
      <trkpt lat="43.70912" lon="7.08983">
        <ele>247.19999694824</ele>
        <time>2014-12-29T14:02:16.000Z</time>
      </trkpt>
      <trkpt lat="43.70902" lon="7.08975">
        <ele>246.80000305176</ele>
        <time>2014-12-29T14:02:20.000Z</time>
      </trkpt>
      <trkpt lat="43.709" lon="7.08973">
        <ele>246.19999694824</ele>
        <time>2014-12-29T14:02:21.000Z</time>
      </trkpt>
      <trkpt lat="43.70897" lon="7.0897">
        <ele>245.80000305176</ele>
        <time>2014-12-29T14:02:22.000Z</time>
      </trkpt>
      <trkpt lat="43.70895" lon="7.08967">
        <ele>245.39999389648</ele>
        <time>2014-12-29T14:02:23.000Z</time>
      </trkpt>
      <trkpt lat="43.70893" lon="7.08963">
        <ele>244.80000305176</ele>
        <time>2014-12-29T14:02:24.000Z</time>
      </trkpt>
      <trkpt lat="43.70889" lon="7.08953">
        <ele>244.39999389648</ele>
        <time>2014-12-29T14:02:27.000Z</time>
      </trkpt>
      <trkpt lat="43.70888" lon="7.08949">
        <ele>244</ele>
        <time>2014-12-29T14:02:28.000Z</time>
      </trkpt>
      <trkpt lat="43.70886" lon="7.08946">
        <ele>243.60000610352</ele>
        <time>2014-12-29T14:02:29.000Z</time>
      </trkpt>
      <trkpt lat="43.70885" lon="7.08943">
        <ele>243.19999694824</ele>
        <time>2014-12-29T14:02:30.000Z</time>
      </trkpt>
      <trkpt lat="43.70884" lon="7.0894">
        <ele>242.80000305176</ele>
        <time>2014-12-29T14:02:31.000Z</time>
      </trkpt>
      <trkpt lat="43.70879" lon="7.08931">
        <ele>242.19999694824</ele>
        <time>2014-12-29T14:02:34.000Z</time>
      </trkpt>
      <trkpt lat="43.70877" lon="7.08928">
        <ele>241.80000305176</ele>
        <time>2014-12-29T14:02:35.000Z</time>
      </trkpt>
      <trkpt lat="43.70876" lon="7.08925">
        <ele>241.39999389648</ele>
        <time>2014-12-29T14:02:36.000Z</time>
      </trkpt>
      <trkpt lat="43.70875" lon="7.08921">
        <ele>241</ele>
        <time>2014-12-29T14:02:37.000Z</time>
      </trkpt>
      <trkpt lat="43.70873" lon="7.08917">
        <ele>240.39999389648</ele>
        <time>2014-12-29T14:02:38.000Z</time>
      </trkpt>
      <trkpt lat="43.70872" lon="7.08913">
        <ele>240.39999389648</ele>
        <time>2014-12-29T14:02:39.000Z</time>
      </trkpt>
      <trkpt lat="43.70867" lon="7.08893">
        <ele>240</ele>
        <time>2014-12-29T14:02:45.000Z</time>
      </trkpt>
      <trkpt lat="43.70866" lon="7.08889">
        <ele>239.60000610352</ele>
        <time>2014-12-29T14:02:46.000Z</time>
      </trkpt>
      <trkpt lat="43.70864" lon="7.08885">
        <ele>239.19999694824</ele>
        <time>2014-12-29T14:02:47.000Z</time>
      </trkpt>
      <trkpt lat="43.70863" lon="7.08881">
        <ele>238.80000305176</ele>
        <time>2014-12-29T14:02:48.000Z</time>
      </trkpt>
      <trkpt lat="43.70863" lon="7.08877">
        <ele>238.39999389648</ele>
        <time>2014-12-29T14:02:49.000Z</time>
      </trkpt>
      <trkpt lat="43.7086" lon="7.08865">
        <ele>238.39999389648</ele>
        <time>2014-12-29T14:02:53.000Z</time>
      </trkpt>
      <trkpt lat="43.70859" lon="7.08862">
        <ele>238</ele>
        <time>2014-12-29T14:02:54.000Z</time>
      </trkpt>
      <trkpt lat="43.70858" lon="7.08858">
        <ele>237.39999389648</ele>
        <time>2014-12-29T14:02:55.000Z</time>
      </trkpt>
      <trkpt lat="43.70857" lon="7.08854">
        <ele>237</ele>
        <time>2014-12-29T14:02:56.000Z</time>
      </trkpt>
      <trkpt lat="43.70857" lon="7.0885">
        <ele>236.60000610352</ele>
        <time>2014-12-29T14:02:57.000Z</time>
      </trkpt>
      <trkpt lat="43.70858" lon="7.08846">
        <ele>236.19999694824</ele>
        <time>2014-12-29T14:02:58.000Z</time>
      </trkpt>
      <trkpt lat="43.70859" lon="7.08841">
        <ele>236.19999694824</ele>
        <time>2014-12-29T14:02:59.000Z</time>
      </trkpt>
      <trkpt lat="43.70857" lon="7.0883">
        <ele>235.80000305176</ele>
        <time>2014-12-29T14:03:02.000Z</time>
      </trkpt>
      <trkpt lat="43.70855" lon="7.08826">
        <ele>235.39999389648</ele>
        <time>2014-12-29T14:03:03.000Z</time>
      </trkpt>
      <trkpt lat="43.70854" lon="7.08822">
        <ele>235</ele>
        <time>2014-12-29T14:03:04.000Z</time>
      </trkpt>
      <trkpt lat="43.70852" lon="7.08818">
        <ele>234.60000610352</ele>
        <time>2014-12-29T14:03:05.000Z</time>
      </trkpt>
      <trkpt lat="43.70851" lon="7.08815">
        <ele>234.19999694824</ele>
        <time>2014-12-29T14:03:06.000Z</time>
      </trkpt>
      <trkpt lat="43.70849" lon="7.08812">
        <ele>233.60000610352</ele>
        <time>2014-12-29T14:03:07.000Z</time>
      </trkpt>
      <trkpt lat="43.70847" lon="7.08807">
        <ele>233.19999694824</ele>
        <time>2014-12-29T14:03:08.000Z</time>
      </trkpt>
      <trkpt lat="43.70846" lon="7.08803">
        <ele>232.80000305176</ele>
        <time>2014-12-29T14:03:09.000Z</time>
      </trkpt>
      <trkpt lat="43.70844" lon="7.08798">
        <ele>232.39999389648</ele>
        <time>2014-12-29T14:03:10.000Z</time>
      </trkpt>
      <trkpt lat="43.70843" lon="7.08793">
        <ele>232</ele>
        <time>2014-12-29T14:03:11.000Z</time>
      </trkpt>
      <trkpt lat="43.70837" lon="7.08774">
        <ele>232</ele>
        <time>2014-12-29T14:03:17.000Z</time>
      </trkpt>
      <trkpt lat="43.70828" lon="7.0875">
        <ele>232</ele>
        <time>2014-12-29T14:03:24.000Z</time>
      </trkpt>
      <trkpt lat="43.70821" lon="7.08723">
        <ele>232</ele>
        <time>2014-12-29T14:03:32.000Z</time>
      </trkpt>
      <trkpt lat="43.70818" lon="7.08711">
        <ele>231.60000610352</ele>
        <time>2014-12-29T14:03:36.000Z</time>
      </trkpt>
      <trkpt lat="43.70816" lon="7.08707">
        <ele>231.19999694824</ele>
        <time>2014-12-29T14:03:37.000Z</time>
      </trkpt>
      <trkpt lat="43.70814" lon="7.08704">
        <ele>230.80000305176</ele>
        <time>2014-12-29T14:03:38.000Z</time>
      </trkpt>
      <trkpt lat="43.70812" lon="7.087">
        <ele>230.19999694824</ele>
        <time>2014-12-29T14:03:39.000Z</time>
      </trkpt>
      <trkpt lat="43.70811" lon="7.08695">
        <ele>229.80000305176</ele>
        <time>2014-12-29T14:03:40.000Z</time>
      </trkpt>
      <trkpt lat="43.70808" lon="7.08691">
        <ele>229.39999389648</ele>
        <time>2014-12-29T14:03:41.000Z</time>
      </trkpt>
      <trkpt lat="43.70806" lon="7.08688">
        <ele>229</ele>
        <time>2014-12-29T14:03:42.000Z</time>
      </trkpt>
      <trkpt lat="43.70804" lon="7.08685">
        <ele>228.60000610352</ele>
        <time>2014-12-29T14:03:43.000Z</time>
      </trkpt>
      <trkpt lat="43.70802" lon="7.08684">
        <ele>228.19999694824</ele>
        <time>2014-12-29T14:03:44.000Z</time>
      </trkpt>
      <trkpt lat="43.708" lon="7.08682">
        <ele>227.80000305176</ele>
        <time>2014-12-29T14:03:45.000Z</time>
      </trkpt>
      <trkpt lat="43.70798" lon="7.08681">
        <ele>227.19999694824</ele>
        <time>2014-12-29T14:03:46.000Z</time>
      </trkpt>
      <trkpt lat="43.70794" lon="7.08679">
        <ele>226.80000305176</ele>
        <time>2014-12-29T14:03:47.000Z</time>
      </trkpt>
      <trkpt lat="43.70792" lon="7.08677">
        <ele>226.39999389648</ele>
        <time>2014-12-29T14:03:48.000Z</time>
      </trkpt>
      <trkpt lat="43.70789" lon="7.08675">
        <ele>226</ele>
        <time>2014-12-29T14:03:49.000Z</time>
      </trkpt>
      <trkpt lat="43.70787" lon="7.08673">
        <ele>225.60000610352</ele>
        <time>2014-12-29T14:03:50.000Z</time>
      </trkpt>
      <trkpt lat="43.70771" lon="7.08667">
        <ele>225.60000610352</ele>
        <time>2014-12-29T14:03:56.000Z</time>
      </trkpt>
      <trkpt lat="43.70756" lon="7.08657">
        <ele>225.19999694824</ele>
        <time>2014-12-29T14:04:02.000Z</time>
      </trkpt>
      <trkpt lat="43.70754" lon="7.08656">
        <ele>224.60000610352</ele>
        <time>2014-12-29T14:04:03.000Z</time>
      </trkpt>
      <trkpt lat="43.70751" lon="7.08655">
        <ele>224.19999694824</ele>
        <time>2014-12-29T14:04:04.000Z</time>
      </trkpt>
      <trkpt lat="43.70749" lon="7.08655">
        <ele>223.80000305176</ele>
        <time>2014-12-29T14:04:05.000Z</time>
      </trkpt>
      <trkpt lat="43.70747" lon="7.08653">
        <ele>223.39999389648</ele>
        <time>2014-12-29T14:04:06.000Z</time>
      </trkpt>
      <trkpt lat="43.70735" lon="7.08644">
        <ele>223.39999389648</ele>
        <time>2014-12-29T14:04:11.000Z</time>
      </trkpt>
      <trkpt lat="43.70716" lon="7.08636">
        <ele>223.39999389648</ele>
        <time>2014-12-29T14:04:17.000Z</time>
      </trkpt>
      <trkpt lat="43.70695" lon="7.08626">
        <ele>223.39999389648</ele>
        <time>2014-12-29T14:04:26.000Z</time>
      </trkpt>
      <trkpt lat="43.70676" lon="7.08621">
        <ele>223.39999389648</ele>
        <time>2014-12-29T14:04:33.000Z</time>
      </trkpt>
      <trkpt lat="43.7066" lon="7.08627">
        <ele>223.39999389648</ele>
        <time>2014-12-29T14:04:40.000Z</time>
      </trkpt>
      <trkpt lat="43.70644" lon="7.08633">
        <ele>223.39999389648</ele>
        <time>2014-12-29T14:04:47.000Z</time>
      </trkpt>
      <trkpt lat="43.70628" lon="7.08631">
        <ele>223.39999389648</ele>
        <time>2014-12-29T14:04:53.000Z</time>
      </trkpt>
      <trkpt lat="43.70609" lon="7.08625">
        <ele>223.39999389648</ele>
        <time>2014-12-29T14:05:00.000Z</time>
      </trkpt>
      <trkpt lat="43.70597" lon="7.08624">
        <ele>223.39999389648</ele>
        <time>2014-12-29T14:05:09.000Z</time>
      </trkpt>
      <trkpt lat="43.70595" lon="7.08623">
        <ele>221.19999694824</ele>
        <time>2014-12-29T14:06:59.000Z</time>
      </trkpt>
      <trkpt lat="43.70587" lon="7.08619">
        <ele>221.19999694824</ele>
        <time>2014-12-29T14:07:01.000Z</time>
      </trkpt>
      <trkpt lat="43.70561" lon="7.08595">
        <ele>221.19999694824</ele>
        <time>2014-12-29T14:07:10.000Z</time>
      </trkpt>
      <trkpt lat="43.70546" lon="7.08583">
        <ele>221.60000610352</ele>
        <time>2014-12-29T14:07:14.000Z</time>
      </trkpt>
      <trkpt lat="43.70542" lon="7.08581">
        <ele>222</ele>
        <time>2014-12-29T14:07:15.000Z</time>
      </trkpt>
      <trkpt lat="43.7054" lon="7.08579">
        <ele>222.60000610352</ele>
        <time>2014-12-29T14:07:16.000Z</time>
      </trkpt>
      <trkpt lat="43.70536" lon="7.08577">
        <ele>223</ele>
        <time>2014-12-29T14:07:17.000Z</time>
      </trkpt>
      <trkpt lat="43.70533" lon="7.08574">
        <ele>223.39999389648</ele>
        <time>2014-12-29T14:07:18.000Z</time>
      </trkpt>
      <trkpt lat="43.70518" lon="7.08561">
        <ele>223.39999389648</ele>
        <time>2014-12-29T14:07:23.000Z</time>
      </trkpt>
      <trkpt lat="43.70498" lon="7.08541">
        <ele>223.39999389648</ele>
        <time>2014-12-29T14:07:30.000Z</time>
      </trkpt>
      <trkpt lat="43.70477" lon="7.08527">
        <ele>223.39999389648</ele>
        <time>2014-12-29T14:07:37.000Z</time>
      </trkpt>
      <trkpt lat="43.70461" lon="7.08518">
        <ele>223.39999389648</ele>
        <time>2014-12-29T14:07:44.000Z</time>
      </trkpt>
      <trkpt lat="43.7045" lon="7.08511">
        <ele>223.80000305176</ele>
        <time>2014-12-29T14:07:50.000Z</time>
      </trkpt>
      <trkpt lat="43.70448" lon="7.08511">
        <ele>224.19999694824</ele>
        <time>2014-12-29T14:07:51.000Z</time>
      </trkpt>
      <trkpt lat="43.70446" lon="7.0851">
        <ele>224.60000610352</ele>
        <time>2014-12-29T14:07:52.000Z</time>
      </trkpt>
      <trkpt lat="43.70443" lon="7.08509">
        <ele>225</ele>
        <time>2014-12-29T14:07:53.000Z</time>
      </trkpt>
      <trkpt lat="43.7044" lon="7.08509">
        <ele>225.39999389648</ele>
        <time>2014-12-29T14:07:54.000Z</time>
      </trkpt>
      <trkpt lat="43.70434" lon="7.08507">
        <ele>225.39999389648</ele>
        <time>2014-12-29T14:07:57.000Z</time>
      </trkpt>
      <trkpt lat="43.70423" lon="7.08508">
        <ele>225.80000305176</ele>
        <time>2014-12-29T14:08:02.000Z</time>
      </trkpt>
      <trkpt lat="43.70421" lon="7.08508">
        <ele>226.19999694824</ele>
        <time>2014-12-29T14:08:03.000Z</time>
      </trkpt>
      <trkpt lat="43.70418" lon="7.08508">
        <ele>226.60000610352</ele>
        <time>2014-12-29T14:08:04.000Z</time>
      </trkpt>
      <trkpt lat="43.70415" lon="7.08509">
        <ele>227.19999694824</ele>
        <time>2014-12-29T14:08:05.000Z</time>
      </trkpt>
      <trkpt lat="43.70409" lon="7.08509">
        <ele>227.60000610352</ele>
        <time>2014-12-29T14:08:06.000Z</time>
      </trkpt>
      <trkpt lat="43.70395" lon="7.08508">
        <ele>227.60000610352</ele>
        <time>2014-12-29T14:08:10.000Z</time>
      </trkpt>
      <trkpt lat="43.70379" lon="7.08503">
        <ele>227.60000610352</ele>
        <time>2014-12-29T14:08:16.000Z</time>
      </trkpt>
      <trkpt lat="43.70358" lon="7.08494">
        <ele>227.60000610352</ele>
        <time>2014-12-29T14:08:25.000Z</time>
      </trkpt>
      <trkpt lat="43.70346" lon="7.08479">
        <ele>227.60000610352</ele>
        <time>2014-12-29T14:08:31.000Z</time>
      </trkpt>
      <trkpt lat="43.70334" lon="7.08453">
        <ele>227.60000610352</ele>
        <time>2014-12-29T14:08:38.000Z</time>
      </trkpt>
      <trkpt lat="43.70328" lon="7.08435">
        <ele>227.60000610352</ele>
        <time>2014-12-29T14:08:43.000Z</time>
      </trkpt>
      <trkpt lat="43.7032" lon="7.08413">
        <ele>227.60000610352</ele>
        <time>2014-12-29T14:08:50.000Z</time>
      </trkpt>
      <trkpt lat="43.70314" lon="7.084">
        <ele>227.19999694824</ele>
        <time>2014-12-29T14:08:54.000Z</time>
      </trkpt>
      <trkpt lat="43.70313" lon="7.08397">
        <ele>226.60000610352</ele>
        <time>2014-12-29T14:08:55.000Z</time>
      </trkpt>
      <trkpt lat="43.70311" lon="7.08393">
        <ele>226.19999694824</ele>
        <time>2014-12-29T14:08:56.000Z</time>
      </trkpt>
      <trkpt lat="43.7031" lon="7.08389">
        <ele>225.80000305176</ele>
        <time>2014-12-29T14:08:57.000Z</time>
      </trkpt>
      <trkpt lat="43.70308" lon="7.08385">
        <ele>225.39999389648</ele>
        <time>2014-12-29T14:08:58.000Z</time>
      </trkpt>
      <trkpt lat="43.703" lon="7.08366">
        <ele>225.39999389648</ele>
        <time>2014-12-29T14:09:04.000Z</time>
      </trkpt>
      <trkpt lat="43.70293" lon="7.08346">
        <ele>225.39999389648</ele>
        <time>2014-12-29T14:09:09.000Z</time>
      </trkpt>
      <trkpt lat="43.70289" lon="7.08335">
        <ele>225</ele>
        <time>2014-12-29T14:09:12.000Z</time>
      </trkpt>
      <trkpt lat="43.70288" lon="7.08332">
        <ele>224.60000610352</ele>
        <time>2014-12-29T14:09:13.000Z</time>
      </trkpt>
      <trkpt lat="43.70287" lon="7.08328">
        <ele>224.19999694824</ele>
        <time>2014-12-29T14:09:14.000Z</time>
      </trkpt>
      <trkpt lat="43.70285" lon="7.08326">
        <ele>223.80000305176</ele>
        <time>2014-12-29T14:09:15.000Z</time>
      </trkpt>
      <trkpt lat="43.70284" lon="7.08324">
        <ele>223.39999389648</ele>
        <time>2014-12-29T14:09:16.000Z</time>
      </trkpt>
      <trkpt lat="43.70282" lon="7.08322">
        <ele>223.39999389648</ele>
        <time>2014-12-29T14:09:17.000Z</time>
      </trkpt>
      <trkpt lat="43.70278" lon="7.08319">
        <ele>223.80000305176</ele>
        <time>2014-12-29T14:09:19.000Z</time>
      </trkpt>
      <trkpt lat="43.70275" lon="7.08318">
        <ele>224.19999694824</ele>
        <time>2014-12-29T14:09:20.000Z</time>
      </trkpt>
      <trkpt lat="43.70274" lon="7.08316">
        <ele>224.60000610352</ele>
        <time>2014-12-29T14:09:21.000Z</time>
      </trkpt>
      <trkpt lat="43.70272" lon="7.08314">
        <ele>225</ele>
        <time>2014-12-29T14:09:22.000Z</time>
      </trkpt>
      <trkpt lat="43.70271" lon="7.08313">
        <ele>225.60000610352</ele>
        <time>2014-12-29T14:09:23.000Z</time>
      </trkpt>
      <trkpt lat="43.70259" lon="7.08296">
        <ele>225.60000610352</ele>
        <time>2014-12-29T14:09:30.000Z</time>
      </trkpt>
      <trkpt lat="43.70255" lon="7.08292">
        <ele>226</ele>
        <time>2014-12-29T14:09:32.000Z</time>
      </trkpt>
      <trkpt lat="43.70252" lon="7.08289">
        <ele>226.39999389648</ele>
        <time>2014-12-29T14:09:33.000Z</time>
      </trkpt>
      <trkpt lat="43.7025" lon="7.08287">
        <ele>227</ele>
        <time>2014-12-29T14:09:34.000Z</time>
      </trkpt>
      <trkpt lat="43.70248" lon="7.08284">
        <ele>227.39999389648</ele>
        <time>2014-12-29T14:09:35.000Z</time>
      </trkpt>
      <trkpt lat="43.70247" lon="7.08282">
        <ele>227.80000305176</ele>
        <time>2014-12-29T14:09:36.000Z</time>
      </trkpt>
      <trkpt lat="43.70246" lon="7.0828">
        <ele>227.80000305176</ele>
        <time>2014-12-29T14:09:37.000Z</time>
      </trkpt>
      <trkpt lat="43.70234" lon="7.08258">
        <ele>227.80000305176</ele>
        <time>2014-12-29T14:09:44.000Z</time>
      </trkpt>
      <trkpt lat="43.70223" lon="7.08237">
        <ele>227.39999389648</ele>
        <time>2014-12-29T14:09:50.000Z</time>
      </trkpt>
      <trkpt lat="43.70221" lon="7.08234">
        <ele>227</ele>
        <time>2014-12-29T14:09:51.000Z</time>
      </trkpt>
      <trkpt lat="43.7022" lon="7.0823">
        <ele>226.60000610352</ele>
        <time>2014-12-29T14:09:52.000Z</time>
      </trkpt>
      <trkpt lat="43.70218" lon="7.08227">
        <ele>226</ele>
        <time>2014-12-29T14:09:53.000Z</time>
      </trkpt>
      <trkpt lat="43.70217" lon="7.08224">
        <ele>225.60000610352</ele>
        <time>2014-12-29T14:09:54.000Z</time>
      </trkpt>
      <trkpt lat="43.70209" lon="7.08216">
        <ele>225.60000610352</ele>
        <time>2014-12-29T14:09:58.000Z</time>
      </trkpt>
      <trkpt lat="43.70195" lon="7.082">
        <ele>225.60000610352</ele>
        <time>2014-12-29T14:10:05.000Z</time>
      </trkpt>
      <trkpt lat="43.70191" lon="7.08195">
        <ele>226.19999694824</ele>
        <time>2014-12-29T14:10:07.000Z</time>
      </trkpt>
      <trkpt lat="43.70189" lon="7.08192">
        <ele>226.60000610352</ele>
        <time>2014-12-29T14:10:08.000Z</time>
      </trkpt>
      <trkpt lat="43.70188" lon="7.08189">
        <ele>227.19999694824</ele>
        <time>2014-12-29T14:10:09.000Z</time>
      </trkpt>
      <trkpt lat="43.70186" lon="7.08186">
        <ele>227.60000610352</ele>
        <time>2014-12-29T14:10:10.000Z</time>
      </trkpt>
      <trkpt lat="43.70185" lon="7.08182">
        <ele>228</ele>
        <time>2014-12-29T14:10:11.000Z</time>
      </trkpt>
      <trkpt lat="43.70184" lon="7.08178">
        <ele>228</ele>
        <time>2014-12-29T14:10:12.000Z</time>
      </trkpt>
      <trkpt lat="43.70175" lon="7.08157">
        <ele>228</ele>
        <time>2014-12-29T14:10:19.000Z</time>
      </trkpt>
      <trkpt lat="43.70163" lon="7.08136">
        <ele>228</ele>
        <time>2014-12-29T14:10:27.000Z</time>
      </trkpt>
      <trkpt lat="43.70157" lon="7.08131">
        <ele>228.60000610352</ele>
        <time>2014-12-29T14:10:30.000Z</time>
      </trkpt>
      <trkpt lat="43.70156" lon="7.08129">
        <ele>229</ele>
        <time>2014-12-29T14:10:31.000Z</time>
      </trkpt>
      <trkpt lat="43.70154" lon="7.08128">
        <ele>229.60000610352</ele>
        <time>2014-12-29T14:10:32.000Z</time>
      </trkpt>
      <trkpt lat="43.70152" lon="7.08127">
        <ele>230</ele>
        <time>2014-12-29T14:10:33.000Z</time>
      </trkpt>
      <trkpt lat="43.70151" lon="7.08126">
        <ele>230.39999389648</ele>
        <time>2014-12-29T14:10:34.000Z</time>
      </trkpt>
      <trkpt lat="43.70142" lon="7.08121">
        <ele>230.39999389648</ele>
        <time>2014-12-29T14:10:38.000Z</time>
      </trkpt>
      <trkpt lat="43.70139" lon="7.08119">
        <ele>230.39999389648</ele>
        <time>2014-12-29T14:10:39.000Z</time>
      </trkpt>
      <trkpt lat="43.70127" lon="7.08106">
        <ele>230.39999389648</ele>
        <time>2014-12-29T14:10:44.000Z</time>
      </trkpt>
      <trkpt lat="43.7011" lon="7.08092">
        <ele>230.39999389648</ele>
        <time>2014-12-29T14:10:51.000Z</time>
      </trkpt>
      <trkpt lat="43.70102" lon="7.08085">
        <ele>230.80000305176</ele>
        <time>2014-12-29T14:10:54.000Z</time>
      </trkpt>
      <trkpt lat="43.701" lon="7.08083">
        <ele>231.39999389648</ele>
        <time>2014-12-29T14:10:55.000Z</time>
      </trkpt>
      <trkpt lat="43.70098" lon="7.08081">
        <ele>231.80000305176</ele>
        <time>2014-12-29T14:10:56.000Z</time>
      </trkpt>
      <trkpt lat="43.70094" lon="7.08077">
        <ele>232.60000610352</ele>
        <time>2014-12-29T14:10:58.000Z</time>
      </trkpt>
      <trkpt lat="43.70091" lon="7.08076">
        <ele>232.60000610352</ele>
        <time>2014-12-29T14:10:59.000Z</time>
      </trkpt>
      <trkpt lat="43.70079" lon="7.08073">
        <ele>232.60000610352</ele>
        <time>2014-12-29T14:11:04.000Z</time>
      </trkpt>
      <trkpt lat="43.7007" lon="7.08078">
        <ele>233</ele>
        <time>2014-12-29T14:11:08.000Z</time>
      </trkpt>
      <trkpt lat="43.70068" lon="7.08081">
        <ele>233.39999389648</ele>
        <time>2014-12-29T14:11:09.000Z</time>
      </trkpt>
      <trkpt lat="43.70067" lon="7.08083">
        <ele>233.80000305176</ele>
        <time>2014-12-29T14:11:10.000Z</time>
      </trkpt>
      <trkpt lat="43.70065" lon="7.08085">
        <ele>234.19999694824</ele>
        <time>2014-12-29T14:11:11.000Z</time>
      </trkpt>
      <trkpt lat="43.70064" lon="7.08087">
        <ele>234.60000610352</ele>
        <time>2014-12-29T14:11:12.000Z</time>
      </trkpt>
      <trkpt lat="43.70054" lon="7.08097">
        <ele>234.60000610352</ele>
        <time>2014-12-29T14:11:17.000Z</time>
      </trkpt>
      <trkpt lat="43.70051" lon="7.08101">
        <ele>235.19999694824</ele>
        <time>2014-12-29T14:11:19.000Z</time>
      </trkpt>
      <trkpt lat="43.7005" lon="7.08103">
        <ele>235.60000610352</ele>
        <time>2014-12-29T14:11:20.000Z</time>
      </trkpt>
      <trkpt lat="43.70048" lon="7.08105">
        <ele>236</ele>
        <time>2014-12-29T14:11:21.000Z</time>
      </trkpt>
      <trkpt lat="43.70048" lon="7.08108">
        <ele>236.39999389648</ele>
        <time>2014-12-29T14:11:22.000Z</time>
      </trkpt>
      <trkpt lat="43.70046" lon="7.08109">
        <ele>236.80000305176</ele>
        <time>2014-12-29T14:11:23.000Z</time>
      </trkpt>
      <trkpt lat="43.70044" lon="7.08112">
        <ele>236.80000305176</ele>
        <time>2014-12-29T14:11:24.000Z</time>
      </trkpt>
      <trkpt lat="43.7004" lon="7.08132">
        <ele>236.80000305176</ele>
        <time>2014-12-29T14:11:31.000Z</time>
      </trkpt>
      <trkpt lat="43.70035" lon="7.08146">
        <ele>237.39999389648</ele>
        <time>2014-12-29T14:11:36.000Z</time>
      </trkpt>
      <trkpt lat="43.70032" lon="7.08149">
        <ele>237.80000305176</ele>
        <time>2014-12-29T14:11:37.000Z</time>
      </trkpt>
      <trkpt lat="43.7003" lon="7.08152">
        <ele>238.19999694824</ele>
        <time>2014-12-29T14:11:38.000Z</time>
      </trkpt>
      <trkpt lat="43.70028" lon="7.08154">
        <ele>238.80000305176</ele>
        <time>2014-12-29T14:11:39.000Z</time>
      </trkpt>
      <trkpt lat="43.70025" lon="7.08157">
        <ele>239.19999694824</ele>
        <time>2014-12-29T14:11:40.000Z</time>
      </trkpt>
      <trkpt lat="43.70015" lon="7.08172">
        <ele>239.60000610352</ele>
        <time>2014-12-29T14:11:46.000Z</time>
      </trkpt>
      <trkpt lat="43.70013" lon="7.08175">
        <ele>240</ele>
        <time>2014-12-29T14:11:47.000Z</time>
      </trkpt>
      <trkpt lat="43.70011" lon="7.08176">
        <ele>240.39999389648</ele>
        <time>2014-12-29T14:11:48.000Z</time>
      </trkpt>
      <trkpt lat="43.70009" lon="7.08178">
        <ele>241</ele>
        <time>2014-12-29T14:11:49.000Z</time>
      </trkpt>
      <trkpt lat="43.70008" lon="7.0818">
        <ele>241.39999389648</ele>
        <time>2014-12-29T14:11:50.000Z</time>
      </trkpt>
      <trkpt lat="43.70004" lon="7.08189">
        <ele>241.39999389648</ele>
        <time>2014-12-29T14:11:54.000Z</time>
      </trkpt>
      <trkpt lat="43.69997" lon="7.08198">
        <ele>241.39999389648</ele>
        <time>2014-12-29T14:11:58.000Z</time>
      </trkpt>
      <trkpt lat="43.69995" lon="7.08199">
        <ele>241.39999389648</ele>
        <time>2014-12-29T14:11:59.000Z</time>
      </trkpt>
      <trkpt lat="43.69978" lon="7.08204">
        <ele>241.39999389648</ele>
        <time>2014-12-29T14:12:06.000Z</time>
      </trkpt>
      <trkpt lat="43.69974" lon="7.08209">
        <ele>241.39999389648</ele>
        <time>2014-12-29T14:12:11.000Z</time>
      </trkpt>
      <trkpt lat="43.69974" lon="7.08209">
        <ele>241.39999389648</ele>
        <time>2014-12-29T14:12:12.000Z</time>
      </trkpt>
      <trkpt lat="43.69974" lon="7.08201">
        <ele>241.39999389648</ele>
        <time>2014-12-29T14:12:21.000Z</time>
      </trkpt>
      <trkpt lat="43.69973" lon="7.08197">
        <ele>241.39999389648</ele>
        <time>2014-12-29T14:12:22.000Z</time>
      </trkpt>
      <trkpt lat="43.69965" lon="7.0818">
        <ele>241.39999389648</ele>
        <time>2014-12-29T14:12:28.000Z</time>
      </trkpt>
      <trkpt lat="43.6996" lon="7.08175">
        <ele>241.39999389648</ele>
        <time>2014-12-29T14:12:30.000Z</time>
      </trkpt>
      <trkpt lat="43.69955" lon="7.08169">
        <ele>241.39999389648</ele>
        <time>2014-12-29T14:12:32.000Z</time>
      </trkpt>
      <trkpt lat="43.69941" lon="7.08141">
        <ele>241.39999389648</ele>
        <time>2014-12-29T14:12:40.000Z</time>
      </trkpt>
      <trkpt lat="43.69927" lon="7.08131">
        <ele>241.39999389648</ele>
        <time>2014-12-29T14:12:46.000Z</time>
      </trkpt>
      <trkpt lat="43.6991" lon="7.08136">
        <ele>241.39999389648</ele>
        <time>2014-12-29T14:12:52.000Z</time>
      </trkpt>
      <trkpt lat="43.69897" lon="7.08139">
        <ele>241.39999389648</ele>
        <time>2014-12-29T14:12:58.000Z</time>
      </trkpt>
      <trkpt lat="43.69877" lon="7.08137">
        <ele>241.39999389648</ele>
        <time>2014-12-29T14:13:06.000Z</time>
      </trkpt>
      <trkpt lat="43.69868" lon="7.08136">
        <ele>241</ele>
        <time>2014-12-29T14:13:10.000Z</time>
      </trkpt>
      <trkpt lat="43.69866" lon="7.08135">
        <ele>240.60000610352</ele>
        <time>2014-12-29T14:13:11.000Z</time>
      </trkpt>
      <trkpt lat="43.69865" lon="7.08134">
        <ele>240</ele>
        <time>2014-12-29T14:13:12.000Z</time>
      </trkpt>
      <trkpt lat="43.69864" lon="7.08133">
        <ele>239.60000610352</ele>
        <time>2014-12-29T14:13:13.000Z</time>
      </trkpt>
      <trkpt lat="43.69862" lon="7.08131">
        <ele>239.19999694824</ele>
        <time>2014-12-29T14:13:14.000Z</time>
      </trkpt>
      <trkpt lat="43.69856" lon="7.08127">
        <ele>238.80000305176</ele>
        <time>2014-12-29T14:13:17.000Z</time>
      </trkpt>
      <trkpt lat="43.69854" lon="7.08126">
        <ele>238.19999694824</ele>
        <time>2014-12-29T14:13:18.000Z</time>
      </trkpt>
      <trkpt lat="43.69852" lon="7.08126">
        <ele>237.80000305176</ele>
        <time>2014-12-29T14:13:19.000Z</time>
      </trkpt>
      <trkpt lat="43.69849" lon="7.08127">
        <ele>237.39999389648</ele>
        <time>2014-12-29T14:13:20.000Z</time>
      </trkpt>
      <trkpt lat="43.69846" lon="7.08126">
        <ele>236.80000305176</ele>
        <time>2014-12-29T14:13:21.000Z</time>
      </trkpt>
      <trkpt lat="43.69843" lon="7.08125">
        <ele>236.39999389648</ele>
        <time>2014-12-29T14:13:22.000Z</time>
      </trkpt>
      <trkpt lat="43.69841" lon="7.08125">
        <ele>236</ele>
        <time>2014-12-29T14:13:23.000Z</time>
      </trkpt>
      <trkpt lat="43.69838" lon="7.08124">
        <ele>235.39999389648</ele>
        <time>2014-12-29T14:13:24.000Z</time>
      </trkpt>
      <trkpt lat="43.69835" lon="7.08123">
        <ele>235</ele>
        <time>2014-12-29T14:13:25.000Z</time>
      </trkpt>
      <trkpt lat="43.69832" lon="7.08121">
        <ele>234.60000610352</ele>
        <time>2014-12-29T14:13:26.000Z</time>
      </trkpt>
      <trkpt lat="43.6983" lon="7.0812">
        <ele>234</ele>
        <time>2014-12-29T14:13:27.000Z</time>
      </trkpt>
      <trkpt lat="43.69829" lon="7.08119">
        <ele>233.60000610352</ele>
        <time>2014-12-29T14:13:28.000Z</time>
      </trkpt>
      <trkpt lat="43.69827" lon="7.08118">
        <ele>233</ele>
        <time>2014-12-29T14:13:29.000Z</time>
      </trkpt>
      <trkpt lat="43.69825" lon="7.08117">
        <ele>232.39999389648</ele>
        <time>2014-12-29T14:13:30.000Z</time>
      </trkpt>
      <trkpt lat="43.69825" lon="7.08117">
        <ele>232</ele>
        <time>2014-12-29T14:13:31.000Z</time>
      </trkpt>
      <trkpt lat="43.69825" lon="7.08117">
        <ele>232</ele>
        <time>2014-12-29T14:13:32.000Z</time>
      </trkpt>
      <trkpt lat="43.69803" lon="7.08109">
        <ele>232</ele>
        <time>2014-12-29T14:13:54.000Z</time>
      </trkpt>
      <trkpt lat="43.69801" lon="7.08109">
        <ele>232</ele>
        <time>2014-12-29T14:13:55.000Z</time>
      </trkpt>
      <trkpt lat="43.69799" lon="7.08108">
        <ele>231.60000610352</ele>
        <time>2014-12-29T14:13:56.000Z</time>
      </trkpt>
      <trkpt lat="43.69797" lon="7.08108">
        <ele>231</ele>
        <time>2014-12-29T14:13:57.000Z</time>
      </trkpt>
      <trkpt lat="43.69795" lon="7.08108">
        <ele>230.60000610352</ele>
        <time>2014-12-29T14:13:58.000Z</time>
      </trkpt>
      <trkpt lat="43.69792" lon="7.08107">
        <ele>230</ele>
        <time>2014-12-29T14:13:59.000Z</time>
      </trkpt>
      <trkpt lat="43.6979" lon="7.08107">
        <ele>229.39999389648</ele>
        <time>2014-12-29T14:14:00.000Z</time>
      </trkpt>
      <trkpt lat="43.69788" lon="7.08105">
        <ele>228.80000305176</ele>
        <time>2014-12-29T14:14:01.000Z</time>
      </trkpt>
      <trkpt lat="43.69786" lon="7.08104">
        <ele>228.19999694824</ele>
        <time>2014-12-29T14:14:02.000Z</time>
      </trkpt>
      <trkpt lat="43.69784" lon="7.08104">
        <ele>227.60000610352</ele>
        <time>2014-12-29T14:14:03.000Z</time>
      </trkpt>
      <trkpt lat="43.69783" lon="7.08103">
        <ele>227.19999694824</ele>
        <time>2014-12-29T14:14:04.000Z</time>
      </trkpt>
      <trkpt lat="43.69781" lon="7.08103">
        <ele>226.60000610352</ele>
        <time>2014-12-29T14:14:05.000Z</time>
      </trkpt>
      <trkpt lat="43.69779" lon="7.08103">
        <ele>226.19999694824</ele>
        <time>2014-12-29T14:14:06.000Z</time>
      </trkpt>
      <trkpt lat="43.69778" lon="7.08104">
        <ele>225.60000610352</ele>
        <time>2014-12-29T14:14:07.000Z</time>
      </trkpt>
      <trkpt lat="43.69777" lon="7.08104">
        <ele>225</ele>
        <time>2014-12-29T14:14:08.000Z</time>
      </trkpt>
      <trkpt lat="43.69775" lon="7.08106">
        <ele>224.60000610352</ele>
        <time>2014-12-29T14:14:09.000Z</time>
      </trkpt>
      <trkpt lat="43.69772" lon="7.08108">
        <ele>224.19999694824</ele>
        <time>2014-12-29T14:14:10.000Z</time>
      </trkpt>
      <trkpt lat="43.69771" lon="7.0811">
        <ele>223.60000610352</ele>
        <time>2014-12-29T14:14:11.000Z</time>
      </trkpt>
      <trkpt lat="43.69769" lon="7.08111">
        <ele>223</ele>
        <time>2014-12-29T14:14:12.000Z</time>
      </trkpt>
      <trkpt lat="43.69768" lon="7.08112">
        <ele>222.39999389648</ele>
        <time>2014-12-29T14:14:13.000Z</time>
      </trkpt>
      <trkpt lat="43.69766" lon="7.08112">
        <ele>221.60000610352</ele>
        <time>2014-12-29T14:14:14.000Z</time>
      </trkpt>
      <trkpt lat="43.69764" lon="7.08113">
        <ele>221</ele>
        <time>2014-12-29T14:14:15.000Z</time>
      </trkpt>
      <trkpt lat="43.69764" lon="7.08114">
        <ele>220.39999389648</ele>
        <time>2014-12-29T14:14:16.000Z</time>
      </trkpt>
      <trkpt lat="43.69763" lon="7.08114">
        <ele>219.80000305176</ele>
        <time>2014-12-29T14:14:17.000Z</time>
      </trkpt>
      <trkpt lat="43.69761" lon="7.08114">
        <ele>219.19999694824</ele>
        <time>2014-12-29T14:14:18.000Z</time>
      </trkpt>
      <trkpt lat="43.69759" lon="7.08113">
        <ele>218.60000610352</ele>
        <time>2014-12-29T14:14:19.000Z</time>
      </trkpt>
      <trkpt lat="43.69756" lon="7.08113">
        <ele>218</ele>
        <time>2014-12-29T14:14:20.000Z</time>
      </trkpt>
      <trkpt lat="43.69755" lon="7.08113">
        <ele>217.60000610352</ele>
        <time>2014-12-29T14:14:21.000Z</time>
      </trkpt>
      <trkpt lat="43.69753" lon="7.08114">
        <ele>217</ele>
        <time>2014-12-29T14:14:22.000Z</time>
      </trkpt>
      <trkpt lat="43.69751" lon="7.08113">
        <ele>216.39999389648</ele>
        <time>2014-12-29T14:14:23.000Z</time>
      </trkpt>
      <trkpt lat="43.69749" lon="7.08113">
        <ele>215.80000305176</ele>
        <time>2014-12-29T14:14:24.000Z</time>
      </trkpt>
      <trkpt lat="43.69748" lon="7.08113">
        <ele>215.39999389648</ele>
        <time>2014-12-29T14:14:25.000Z</time>
      </trkpt>
      <trkpt lat="43.69746" lon="7.08112">
        <ele>214.80000305176</ele>
        <time>2014-12-29T14:14:26.000Z</time>
      </trkpt>
      <trkpt lat="43.69741" lon="7.08113">
        <ele>214.19999694824</ele>
        <time>2014-12-29T14:14:27.000Z</time>
      </trkpt>
      <trkpt lat="43.69739" lon="7.08113">
        <ele>213.80000305176</ele>
        <time>2014-12-29T14:14:28.000Z</time>
      </trkpt>
      <trkpt lat="43.69736" lon="7.08113">
        <ele>213.19999694824</ele>
        <time>2014-12-29T14:14:29.000Z</time>
      </trkpt>
      <trkpt lat="43.69733" lon="7.08114">
        <ele>212.60000610352</ele>
        <time>2014-12-29T14:14:30.000Z</time>
      </trkpt>
      <trkpt lat="43.69731" lon="7.08115">
        <ele>212.19999694824</ele>
        <time>2014-12-29T14:14:31.000Z</time>
      </trkpt>
      <trkpt lat="43.69729" lon="7.08116">
        <ele>211.60000610352</ele>
        <time>2014-12-29T14:14:32.000Z</time>
      </trkpt>
      <trkpt lat="43.69727" lon="7.08117">
        <ele>211</ele>
        <time>2014-12-29T14:14:33.000Z</time>
      </trkpt>
      <trkpt lat="43.69725" lon="7.08117">
        <ele>210.39999389648</ele>
        <time>2014-12-29T14:14:34.000Z</time>
      </trkpt>
      <trkpt lat="43.69723" lon="7.08118">
        <ele>209.80000305176</ele>
        <time>2014-12-29T14:14:35.000Z</time>
      </trkpt>
      <trkpt lat="43.69721" lon="7.08118">
        <ele>209.19999694824</ele>
        <time>2014-12-29T14:14:36.000Z</time>
      </trkpt>
      <trkpt lat="43.69719" lon="7.08117">
        <ele>208.60000610352</ele>
        <time>2014-12-29T14:14:37.000Z</time>
      </trkpt>
      <trkpt lat="43.69716" lon="7.08117">
        <ele>208</ele>
        <time>2014-12-29T14:14:38.000Z</time>
      </trkpt>
      <trkpt lat="43.69714" lon="7.08118">
        <ele>207.39999389648</ele>
        <time>2014-12-29T14:14:39.000Z</time>
      </trkpt>
      <trkpt lat="43.69712" lon="7.08118">
        <ele>206.80000305176</ele>
        <time>2014-12-29T14:14:40.000Z</time>
      </trkpt>
      <trkpt lat="43.69709" lon="7.08118">
        <ele>206.39999389648</ele>
        <time>2014-12-29T14:14:41.000Z</time>
      </trkpt>
      <trkpt lat="43.69707" lon="7.08118">
        <ele>205.80000305176</ele>
        <time>2014-12-29T14:14:42.000Z</time>
      </trkpt>
      <trkpt lat="43.69705" lon="7.08118">
        <ele>205.39999389648</ele>
        <time>2014-12-29T14:14:43.000Z</time>
      </trkpt>
      <trkpt lat="43.69703" lon="7.08119">
        <ele>205</ele>
        <time>2014-12-29T14:14:44.000Z</time>
      </trkpt>
      <trkpt lat="43.69702" lon="7.0812">
        <ele>204.39999389648</ele>
        <time>2014-12-29T14:14:45.000Z</time>
      </trkpt>
      <trkpt lat="43.69699" lon="7.0812">
        <ele>204</ele>
        <time>2014-12-29T14:14:46.000Z</time>
      </trkpt>
      <trkpt lat="43.69697" lon="7.08121">
        <ele>203.39999389648</ele>
        <time>2014-12-29T14:14:47.000Z</time>
      </trkpt>
      <trkpt lat="43.69695" lon="7.08121">
        <ele>203</ele>
        <time>2014-12-29T14:14:48.000Z</time>
      </trkpt>
      <trkpt lat="43.69694" lon="7.08122">
        <ele>202.60000610352</ele>
        <time>2014-12-29T14:14:49.000Z</time>
      </trkpt>
      <trkpt lat="43.69692" lon="7.08123">
        <ele>202</ele>
        <time>2014-12-29T14:14:50.000Z</time>
      </trkpt>
      <trkpt lat="43.69688" lon="7.08126">
        <ele>201.60000610352</ele>
        <time>2014-12-29T14:14:52.000Z</time>
      </trkpt>
      <trkpt lat="43.69687" lon="7.08127">
        <ele>201.19999694824</ele>
        <time>2014-12-29T14:14:53.000Z</time>
      </trkpt>
      <trkpt lat="43.69685" lon="7.08127">
        <ele>200.80000305176</ele>
        <time>2014-12-29T14:14:54.000Z</time>
      </trkpt>
      <trkpt lat="43.69682" lon="7.08127">
        <ele>200.39999389648</ele>
        <time>2014-12-29T14:14:55.000Z</time>
      </trkpt>
      <trkpt lat="43.6968" lon="7.08128">
        <ele>200</ele>
        <time>2014-12-29T14:14:56.000Z</time>
      </trkpt>
      <trkpt lat="43.69673" lon="7.08126">
        <ele>199.39999389648</ele>
        <time>2014-12-29T14:14:59.000Z</time>
      </trkpt>
      <trkpt lat="43.69669" lon="7.08125">
        <ele>199</ele>
        <time>2014-12-29T14:15:00.000Z</time>
      </trkpt>
      <trkpt lat="43.69667" lon="7.08123">
        <ele>198.60000610352</ele>
        <time>2014-12-29T14:15:01.000Z</time>
      </trkpt>
      <trkpt lat="43.69663" lon="7.08122">
        <ele>198.19999694824</ele>
        <time>2014-12-29T14:15:02.000Z</time>
      </trkpt>
      <trkpt lat="43.69662" lon="7.08122">
        <ele>197.60000610352</ele>
        <time>2014-12-29T14:15:03.000Z</time>
      </trkpt>
      <trkpt lat="43.69661" lon="7.08123">
        <ele>197.60000610352</ele>
        <time>2014-12-29T14:15:04.000Z</time>
      </trkpt>
      <trkpt lat="43.69658" lon="7.08126">
        <ele>197.60000610352</ele>
        <time>2014-12-29T14:15:05.000Z</time>
      </trkpt>
      <trkpt lat="43.69654" lon="7.08134">
        <ele>197.60000610352</ele>
        <time>2014-12-29T14:15:10.000Z</time>
      </trkpt>
      <trkpt lat="43.69653" lon="7.08135">
        <ele>197.19999694824</ele>
        <time>2014-12-29T14:15:11.000Z</time>
      </trkpt>
      <trkpt lat="43.69652" lon="7.08136">
        <ele>196.60000610352</ele>
        <time>2014-12-29T14:15:12.000Z</time>
      </trkpt>
      <trkpt lat="43.69647" lon="7.08137">
        <ele>196.19999694824</ele>
        <time>2014-12-29T14:15:13.000Z</time>
      </trkpt>
      <trkpt lat="43.69644" lon="7.08139">
        <ele>195.60000610352</ele>
        <time>2014-12-29T14:15:14.000Z</time>
      </trkpt>
      <trkpt lat="43.69641" lon="7.0814">
        <ele>195</ele>
        <time>2014-12-29T14:15:15.000Z</time>
      </trkpt>
      <trkpt lat="43.6964" lon="7.08141">
        <ele>195</ele>
        <time>2014-12-29T14:15:16.000Z</time>
      </trkpt>
      <trkpt lat="43.69634" lon="7.08146">
        <ele>194.60000610352</ele>
        <time>2014-12-29T14:15:19.000Z</time>
      </trkpt>
      <trkpt lat="43.69631" lon="7.08146">
        <ele>194.19999694824</ele>
        <time>2014-12-29T14:15:20.000Z</time>
      </trkpt>
      <trkpt lat="43.69631" lon="7.08148">
        <ele>193.80000305176</ele>
        <time>2014-12-29T14:15:21.000Z</time>
      </trkpt>
      <trkpt lat="43.69629" lon="7.08149">
        <ele>193.19999694824</ele>
        <time>2014-12-29T14:15:22.000Z</time>
      </trkpt>
      <trkpt lat="43.69627" lon="7.0815">
        <ele>192.60000610352</ele>
        <time>2014-12-29T14:15:23.000Z</time>
      </trkpt>
      <trkpt lat="43.69626" lon="7.08151">
        <ele>192.19999694824</ele>
        <time>2014-12-29T14:15:24.000Z</time>
      </trkpt>
      <trkpt lat="43.69623" lon="7.08152">
        <ele>191.60000610352</ele>
        <time>2014-12-29T14:15:25.000Z</time>
      </trkpt>
      <trkpt lat="43.69621" lon="7.08153">
        <ele>191</ele>
        <time>2014-12-29T14:15:26.000Z</time>
      </trkpt>
      <trkpt lat="43.69613" lon="7.08162">
        <ele>190.39999389648</ele>
        <time>2014-12-29T14:15:30.000Z</time>
      </trkpt>
      <trkpt lat="43.69608" lon="7.08164">
        <ele>190</ele>
        <time>2014-12-29T14:15:31.000Z</time>
      </trkpt>
      <trkpt lat="43.69606" lon="7.08166">
        <ele>189.60000610352</ele>
        <time>2014-12-29T14:15:32.000Z</time>
      </trkpt>
      <trkpt lat="43.69603" lon="7.08167">
        <ele>189</ele>
        <time>2014-12-29T14:15:33.000Z</time>
      </trkpt>
      <trkpt lat="43.696" lon="7.08167">
        <ele>188.60000610352</ele>
        <time>2014-12-29T14:15:34.000Z</time>
      </trkpt>
      <trkpt lat="43.6959" lon="7.08167">
        <ele>188.19999694824</ele>
        <time>2014-12-29T14:15:38.000Z</time>
      </trkpt>
      <trkpt lat="43.69587" lon="7.08168">
        <ele>187.60000610352</ele>
        <time>2014-12-29T14:15:39.000Z</time>
      </trkpt>
      <trkpt lat="43.69584" lon="7.08168">
        <ele>187.19999694824</ele>
        <time>2014-12-29T14:15:40.000Z</time>
      </trkpt>
      <trkpt lat="43.6958" lon="7.08169">
        <ele>186.80000305176</ele>
        <time>2014-12-29T14:15:41.000Z</time>
      </trkpt>
      <trkpt lat="43.69577" lon="7.0817">
        <ele>186.19999694824</ele>
        <time>2014-12-29T14:15:42.000Z</time>
      </trkpt>
      <trkpt lat="43.69573" lon="7.0817">
        <ele>185.80000305176</ele>
        <time>2014-12-29T14:15:43.000Z</time>
      </trkpt>
      <trkpt lat="43.69571" lon="7.08171">
        <ele>185.39999389648</ele>
        <time>2014-12-29T14:15:44.000Z</time>
      </trkpt>
      <trkpt lat="43.69568" lon="7.08171">
        <ele>185</ele>
        <time>2014-12-29T14:15:45.000Z</time>
      </trkpt>
      <trkpt lat="43.69566" lon="7.08173">
        <ele>184.39999389648</ele>
        <time>2014-12-29T14:15:46.000Z</time>
      </trkpt>
      <trkpt lat="43.69565" lon="7.08178">
        <ele>184</ele>
        <time>2014-12-29T14:15:47.000Z</time>
      </trkpt>
      <trkpt lat="43.69563" lon="7.08181">
        <ele>183.60000610352</ele>
        <time>2014-12-29T14:15:48.000Z</time>
      </trkpt>
      <trkpt lat="43.69561" lon="7.08183">
        <ele>183.19999694824</ele>
        <time>2014-12-29T14:15:49.000Z</time>
      </trkpt>
      <trkpt lat="43.69558" lon="7.08184">
        <ele>182.60000610352</ele>
        <time>2014-12-29T14:15:50.000Z</time>
      </trkpt>
      <trkpt lat="43.69556" lon="7.08184">
        <ele>182.19999694824</ele>
        <time>2014-12-29T14:15:51.000Z</time>
      </trkpt>
      <trkpt lat="43.69552" lon="7.08184">
        <ele>181.80000305176</ele>
        <time>2014-12-29T14:15:52.000Z</time>
      </trkpt>
      <trkpt lat="43.69544" lon="7.08177">
        <ele>181.80000305176</ele>
        <time>2014-12-29T14:15:56.000Z</time>
      </trkpt>
      <trkpt lat="43.69539" lon="7.08173">
        <ele>181.39999389648</ele>
        <time>2014-12-29T14:15:58.000Z</time>
      </trkpt>
      <trkpt lat="43.69536" lon="7.0817">
        <ele>180.80000305176</ele>
        <time>2014-12-29T14:15:59.000Z</time>
      </trkpt>
      <trkpt lat="43.69533" lon="7.08168">
        <ele>180.39999389648</ele>
        <time>2014-12-29T14:16:00.000Z</time>
      </trkpt>
      <trkpt lat="43.6953" lon="7.08165">
        <ele>180</ele>
        <time>2014-12-29T14:16:01.000Z</time>
      </trkpt>
      <trkpt lat="43.69528" lon="7.08164">
        <ele>179.60000610352</ele>
        <time>2014-12-29T14:16:02.000Z</time>
      </trkpt>
      <trkpt lat="43.69525" lon="7.08163">
        <ele>179.19999694824</ele>
        <time>2014-12-29T14:16:03.000Z</time>
      </trkpt>
      <trkpt lat="43.69522" lon="7.08162">
        <ele>178.60000610352</ele>
        <time>2014-12-29T14:16:04.000Z</time>
      </trkpt>
      <trkpt lat="43.6952" lon="7.0816">
        <ele>178.19999694824</ele>
        <time>2014-12-29T14:16:05.000Z</time>
      </trkpt>
      <trkpt lat="43.69518" lon="7.08159">
        <ele>177.80000305176</ele>
        <time>2014-12-29T14:16:06.000Z</time>
      </trkpt>
      <trkpt lat="43.69516" lon="7.08158">
        <ele>177.19999694824</ele>
        <time>2014-12-29T14:16:07.000Z</time>
      </trkpt>
      <trkpt lat="43.69513" lon="7.08157">
        <ele>176.80000305176</ele>
        <time>2014-12-29T14:16:08.000Z</time>
      </trkpt>
      <trkpt lat="43.6951" lon="7.08157">
        <ele>176.39999389648</ele>
        <time>2014-12-29T14:16:09.000Z</time>
      </trkpt>
      <trkpt lat="43.69508" lon="7.08156">
        <ele>176</ele>
        <time>2014-12-29T14:16:10.000Z</time>
      </trkpt>
      <trkpt lat="43.69506" lon="7.08155">
        <ele>175.60000610352</ele>
        <time>2014-12-29T14:16:11.000Z</time>
      </trkpt>
      <trkpt lat="43.69503" lon="7.08153">
        <ele>175.19999694824</ele>
        <time>2014-12-29T14:16:12.000Z</time>
      </trkpt>
      <trkpt lat="43.69499" lon="7.08151">
        <ele>174.80000305176</ele>
        <time>2014-12-29T14:16:14.000Z</time>
      </trkpt>
      <trkpt lat="43.69497" lon="7.08148">
        <ele>174.19999694824</ele>
        <time>2014-12-29T14:16:15.000Z</time>
      </trkpt>
      <trkpt lat="43.69494" lon="7.08146">
        <ele>173.80000305176</ele>
        <time>2014-12-29T14:16:16.000Z</time>
      </trkpt>
      <trkpt lat="43.69492" lon="7.08144">
        <ele>173.19999694824</ele>
        <time>2014-12-29T14:16:17.000Z</time>
      </trkpt>
      <trkpt lat="43.6949" lon="7.08141">
        <ele>172.80000305176</ele>
        <time>2014-12-29T14:16:18.000Z</time>
      </trkpt>
      <trkpt lat="43.6949" lon="7.08139">
        <ele>172.19999694824</ele>
        <time>2014-12-29T14:16:19.000Z</time>
      </trkpt>
      <trkpt lat="43.69488" lon="7.08136">
        <ele>171.80000305176</ele>
        <time>2014-12-29T14:16:20.000Z</time>
      </trkpt>
      <trkpt lat="43.69488" lon="7.08134">
        <ele>171.19999694824</ele>
        <time>2014-12-29T14:16:21.000Z</time>
      </trkpt>
      <trkpt lat="43.69486" lon="7.0813">
        <ele>170.80000305176</ele>
        <time>2014-12-29T14:16:22.000Z</time>
      </trkpt>
      <trkpt lat="43.69485" lon="7.08126">
        <ele>170.19999694824</ele>
        <time>2014-12-29T14:16:23.000Z</time>
      </trkpt>
      <trkpt lat="43.69485" lon="7.08123">
        <ele>169.80000305176</ele>
        <time>2014-12-29T14:16:24.000Z</time>
      </trkpt>
      <trkpt lat="43.69486" lon="7.0812">
        <ele>169.39999389648</ele>
        <time>2014-12-29T14:16:25.000Z</time>
      </trkpt>
      <trkpt lat="43.69486" lon="7.08117">
        <ele>169</ele>
        <time>2014-12-29T14:16:26.000Z</time>
      </trkpt>
      <trkpt lat="43.69486" lon="7.08114">
        <ele>168.39999389648</ele>
        <time>2014-12-29T14:16:27.000Z</time>
      </trkpt>
      <trkpt lat="43.69485" lon="7.0808">
        <ele>168.39999389648</ele>
        <time>2014-12-29T14:16:35.000Z</time>
      </trkpt>
      <trkpt lat="43.69488" lon="7.08067">
        <ele>168.80000305176</ele>
        <time>2014-12-29T14:16:40.000Z</time>
      </trkpt>
      <trkpt lat="43.69488" lon="7.08063">
        <ele>169.19999694824</ele>
        <time>2014-12-29T14:16:41.000Z</time>
      </trkpt>
      <trkpt lat="43.69489" lon="7.0806">
        <ele>169.80000305176</ele>
        <time>2014-12-29T14:16:42.000Z</time>
      </trkpt>
      <trkpt lat="43.69489" lon="7.08057">
        <ele>170.19999694824</ele>
        <time>2014-12-29T14:16:43.000Z</time>
      </trkpt>
      <trkpt lat="43.6949" lon="7.08055">
        <ele>170.60000610352</ele>
        <time>2014-12-29T14:16:44.000Z</time>
      </trkpt>
      <trkpt lat="43.69491" lon="7.08043">
        <ele>171</ele>
        <time>2014-12-29T14:16:48.000Z</time>
      </trkpt>
      <trkpt lat="43.69491" lon="7.08041">
        <ele>171.39999389648</ele>
        <time>2014-12-29T14:16:49.000Z</time>
      </trkpt>
      <trkpt lat="43.69491" lon="7.08038">
        <ele>171.80000305176</ele>
        <time>2014-12-29T14:16:50.000Z</time>
      </trkpt>
      <trkpt lat="43.69491" lon="7.08035">
        <ele>172.19999694824</ele>
        <time>2014-12-29T14:16:51.000Z</time>
      </trkpt>
      <trkpt lat="43.6949" lon="7.08032">
        <ele>172.60000610352</ele>
        <time>2014-12-29T14:16:52.000Z</time>
      </trkpt>
      <trkpt lat="43.6949" lon="7.08021">
        <ele>172.60000610352</ele>
        <time>2014-12-29T14:16:56.000Z</time>
      </trkpt>
      <trkpt lat="43.6948" lon="7.08019">
        <ele>172.19999694824</ele>
        <time>2014-12-29T14:17:03.000Z</time>
      </trkpt>
      <trkpt lat="43.69479" lon="7.0802">
        <ele>171.80000305176</ele>
        <time>2014-12-29T14:17:04.000Z</time>
      </trkpt>
      <trkpt lat="43.69478" lon="7.08022">
        <ele>171.39999389648</ele>
        <time>2014-12-29T14:17:05.000Z</time>
      </trkpt>
      <trkpt lat="43.69477" lon="7.08024">
        <ele>171</ele>
        <time>2014-12-29T14:17:06.000Z</time>
      </trkpt>
      <trkpt lat="43.69476" lon="7.08025">
        <ele>170.60000610352</ele>
        <time>2014-12-29T14:17:07.000Z</time>
      </trkpt>
      <trkpt lat="43.69472" lon="7.08026">
        <ele>170.19999694824</ele>
        <time>2014-12-29T14:17:09.000Z</time>
      </trkpt>
      <trkpt lat="43.69471" lon="7.08026">
        <ele>169.80000305176</ele>
        <time>2014-12-29T14:17:10.000Z</time>
      </trkpt>
      <trkpt lat="43.69469" lon="7.08026">
        <ele>169.39999389648</ele>
        <time>2014-12-29T14:17:11.000Z</time>
      </trkpt>
      <trkpt lat="43.69469" lon="7.08025">
        <ele>168.80000305176</ele>
        <time>2014-12-29T14:17:12.000Z</time>
      </trkpt>
      <trkpt lat="43.69467" lon="7.08026">
        <ele>168.39999389648</ele>
        <time>2014-12-29T14:17:13.000Z</time>
      </trkpt>
      <trkpt lat="43.69466" lon="7.08027">
        <ele>167.80000305176</ele>
        <time>2014-12-29T14:17:14.000Z</time>
      </trkpt>
      <trkpt lat="43.69465" lon="7.08027">
        <ele>167.39999389648</ele>
        <time>2014-12-29T14:17:15.000Z</time>
      </trkpt>
      <trkpt lat="43.69464" lon="7.08029">
        <ele>166.80000305176</ele>
        <time>2014-12-29T14:17:16.000Z</time>
      </trkpt>
      <trkpt lat="43.69463" lon="7.08029">
        <ele>166.19999694824</ele>
        <time>2014-12-29T14:17:17.000Z</time>
      </trkpt>
      <trkpt lat="43.69461" lon="7.08031">
        <ele>165.80000305176</ele>
        <time>2014-12-29T14:17:18.000Z</time>
      </trkpt>
      <trkpt lat="43.69461" lon="7.08032">
        <ele>165.19999694824</ele>
        <time>2014-12-29T14:17:19.000Z</time>
      </trkpt>
      <trkpt lat="43.69461" lon="7.08034">
        <ele>164.60000610352</ele>
        <time>2014-12-29T14:17:20.000Z</time>
      </trkpt>
      <trkpt lat="43.69459" lon="7.08036">
        <ele>164</ele>
        <time>2014-12-29T14:17:21.000Z</time>
      </trkpt>
      <trkpt lat="43.69457" lon="7.08038">
        <ele>163.39999389648</ele>
        <time>2014-12-29T14:17:22.000Z</time>
      </trkpt>
      <trkpt lat="43.69455" lon="7.08039">
        <ele>163</ele>
        <time>2014-12-29T14:17:23.000Z</time>
      </trkpt>
      <trkpt lat="43.69454" lon="7.08039">
        <ele>162.39999389648</ele>
        <time>2014-12-29T14:17:24.000Z</time>
      </trkpt>
      <trkpt lat="43.69453" lon="7.0804">
        <ele>161.80000305176</ele>
        <time>2014-12-29T14:17:25.000Z</time>
      </trkpt>
      <trkpt lat="43.69448" lon="7.08042">
        <ele>161.39999389648</ele>
        <time>2014-12-29T14:17:30.000Z</time>
      </trkpt>
      <trkpt lat="43.69447" lon="7.08043">
        <ele>160.80000305176</ele>
        <time>2014-12-29T14:17:31.000Z</time>
      </trkpt>
      <trkpt lat="43.69445" lon="7.08043">
        <ele>160.39999389648</ele>
        <time>2014-12-29T14:17:32.000Z</time>
      </trkpt>
      <trkpt lat="43.69444" lon="7.08044">
        <ele>159.80000305176</ele>
        <time>2014-12-29T14:17:33.000Z</time>
      </trkpt>
      <trkpt lat="43.69442" lon="7.08045">
        <ele>159</ele>
        <time>2014-12-29T14:17:34.000Z</time>
      </trkpt>
      <trkpt lat="43.69441" lon="7.08045">
        <ele>158.39999389648</ele>
        <time>2014-12-29T14:17:35.000Z</time>
      </trkpt>
      <trkpt lat="43.6944" lon="7.08044">
        <ele>157.80000305176</ele>
        <time>2014-12-29T14:17:36.000Z</time>
      </trkpt>
      <trkpt lat="43.6944" lon="7.08043">
        <ele>157.19999694824</ele>
        <time>2014-12-29T14:17:37.000Z</time>
      </trkpt>
      <trkpt lat="43.6944" lon="7.0804">
        <ele>156.80000305176</ele>
        <time>2014-12-29T14:17:38.000Z</time>
      </trkpt>
      <trkpt lat="43.69441" lon="7.08038">
        <ele>156.19999694824</ele>
        <time>2014-12-29T14:17:39.000Z</time>
      </trkpt>
      <trkpt lat="43.69439" lon="7.08036">
        <ele>155.80000305176</ele>
        <time>2014-12-29T14:17:40.000Z</time>
      </trkpt>
      <trkpt lat="43.69439" lon="7.08034">
        <ele>155.39999389648</ele>
        <time>2014-12-29T14:17:41.000Z</time>
      </trkpt>
      <trkpt lat="43.69439" lon="7.08032">
        <ele>155</ele>
        <time>2014-12-29T14:17:42.000Z</time>
      </trkpt>
      <trkpt lat="43.69438" lon="7.08031">
        <ele>154.60000610352</ele>
        <time>2014-12-29T14:17:43.000Z</time>
      </trkpt>
      <trkpt lat="43.69437" lon="7.0803">
        <ele>154.19999694824</ele>
        <time>2014-12-29T14:17:44.000Z</time>
      </trkpt>
      <trkpt lat="43.69436" lon="7.08029">
        <ele>153.60000610352</ele>
        <time>2014-12-29T14:17:45.000Z</time>
      </trkpt>
      <trkpt lat="43.69435" lon="7.0803">
        <ele>153.19999694824</ele>
        <time>2014-12-29T14:17:46.000Z</time>
      </trkpt>
      <trkpt lat="43.69434" lon="7.0803">
        <ele>152.80000305176</ele>
        <time>2014-12-29T14:17:47.000Z</time>
      </trkpt>
      <trkpt lat="43.69432" lon="7.08031">
        <ele>152.19999694824</ele>
        <time>2014-12-29T14:17:48.000Z</time>
      </trkpt>
      <trkpt lat="43.69431" lon="7.08032">
        <ele>151.60000610352</ele>
        <time>2014-12-29T14:17:49.000Z</time>
      </trkpt>
      <trkpt lat="43.69427" lon="7.08034">
        <ele>150.80000305176</ele>
        <time>2014-12-29T14:17:50.000Z</time>
      </trkpt>
      <trkpt lat="43.69425" lon="7.08034">
        <ele>150.19999694824</ele>
        <time>2014-12-29T14:17:51.000Z</time>
      </trkpt>
      <trkpt lat="43.69423" lon="7.08033">
        <ele>149.39999389648</ele>
        <time>2014-12-29T14:17:52.000Z</time>
      </trkpt>
      <trkpt lat="43.69421" lon="7.08033">
        <ele>148.80000305176</ele>
        <time>2014-12-29T14:17:53.000Z</time>
      </trkpt>
      <trkpt lat="43.69417" lon="7.08033">
        <ele>148</ele>
        <time>2014-12-29T14:17:54.000Z</time>
      </trkpt>
      <trkpt lat="43.69415" lon="7.08033">
        <ele>147.39999389648</ele>
        <time>2014-12-29T14:17:55.000Z</time>
      </trkpt>
      <trkpt lat="43.69413" lon="7.08032">
        <ele>146.80000305176</ele>
        <time>2014-12-29T14:17:56.000Z</time>
      </trkpt>
      <trkpt lat="43.69409" lon="7.08031">
        <ele>146</ele>
        <time>2014-12-29T14:17:57.000Z</time>
      </trkpt>
      <trkpt lat="43.69406" lon="7.0803">
        <ele>145.39999389648</ele>
        <time>2014-12-29T14:17:58.000Z</time>
      </trkpt>
      <trkpt lat="43.694" lon="7.08026">
        <ele>145.39999389648</ele>
        <time>2014-12-29T14:18:02.000Z</time>
      </trkpt>
      <trkpt lat="43.69397" lon="7.08022">
        <ele>145</ele>
        <time>2014-12-29T14:18:05.000Z</time>
      </trkpt>
      <trkpt lat="43.69398" lon="7.08022">
        <ele>144.39999389648</ele>
        <time>2014-12-29T14:18:06.000Z</time>
      </trkpt>
      <trkpt lat="43.69398" lon="7.08022">
        <ele>144</ele>
        <time>2014-12-29T14:18:07.000Z</time>
      </trkpt>
      <trkpt lat="43.694" lon="7.08022">
        <ele>143.39999389648</ele>
        <time>2014-12-29T14:18:08.000Z</time>
      </trkpt>
      <trkpt lat="43.694" lon="7.08022">
        <ele>142.60000610352</ele>
        <time>2014-12-29T14:18:09.000Z</time>
      </trkpt>
      <trkpt lat="43.69401" lon="7.08022">
        <ele>142</ele>
        <time>2014-12-29T14:18:10.000Z</time>
      </trkpt>
      <trkpt lat="43.69402" lon="7.08021">
        <ele>141.39999389648</ele>
        <time>2014-12-29T14:18:11.000Z</time>
      </trkpt>
      <trkpt lat="43.69402" lon="7.0802">
        <ele>140.80000305176</ele>
        <time>2014-12-29T14:18:12.000Z</time>
      </trkpt>
      <trkpt lat="43.69403" lon="7.08019">
        <ele>140</ele>
        <time>2014-12-29T14:18:13.000Z</time>
      </trkpt>
      <trkpt lat="43.69403" lon="7.08019">
        <ele>139.39999389648</ele>
        <time>2014-12-29T14:18:14.000Z</time>
      </trkpt>
      <trkpt lat="43.69403" lon="7.08018">
        <ele>138.80000305176</ele>
        <time>2014-12-29T14:18:15.000Z</time>
      </trkpt>
      <trkpt lat="43.69403" lon="7.08018">
        <ele>138.19999694824</ele>
        <time>2014-12-29T14:18:16.000Z</time>
      </trkpt>
      <trkpt lat="43.69403" lon="7.08017">
        <ele>137.80000305176</ele>
        <time>2014-12-29T14:18:17.000Z</time>
      </trkpt>
      <trkpt lat="43.69403" lon="7.08015">
        <ele>137.39999389648</ele>
        <time>2014-12-29T14:18:18.000Z</time>
      </trkpt>
      <trkpt lat="43.69404" lon="7.08012">
        <ele>137</ele>
        <time>2014-12-29T14:18:19.000Z</time>
      </trkpt>
      <trkpt lat="43.69404" lon="7.08009">
        <ele>136.39999389648</ele>
        <time>2014-12-29T14:18:20.000Z</time>
      </trkpt>
      <trkpt lat="43.69404" lon="7.08007">
        <ele>135.80000305176</ele>
        <time>2014-12-29T14:18:21.000Z</time>
      </trkpt>
      <trkpt lat="43.69404" lon="7.08004">
        <ele>135</ele>
        <time>2014-12-29T14:18:22.000Z</time>
      </trkpt>
      <trkpt lat="43.69404" lon="7.08002">
        <ele>134.39999389648</ele>
        <time>2014-12-29T14:18:23.000Z</time>
      </trkpt>
      <trkpt lat="43.69404" lon="7.08001">
        <ele>133.80000305176</ele>
        <time>2014-12-29T14:18:24.000Z</time>
      </trkpt>
      <trkpt lat="43.69405" lon="7.07999">
        <ele>133.19999694824</ele>
        <time>2014-12-29T14:18:26.000Z</time>
      </trkpt>
      <trkpt lat="43.69405" lon="7.07998">
        <ele>132.60000610352</ele>
        <time>2014-12-29T14:18:27.000Z</time>
      </trkpt>
      <trkpt lat="43.69405" lon="7.07997">
        <ele>132.19999694824</ele>
        <time>2014-12-29T14:18:28.000Z</time>
      </trkpt>
      <trkpt lat="43.69404" lon="7.07996">
        <ele>131.60000610352</ele>
        <time>2014-12-29T14:18:29.000Z</time>
      </trkpt>
      <trkpt lat="43.69404" lon="7.07995">
        <ele>131</ele>
        <time>2014-12-29T14:18:30.000Z</time>
      </trkpt>
      <trkpt lat="43.69401" lon="7.07995">
        <ele>130.60000610352</ele>
        <time>2014-12-29T14:18:31.000Z</time>
      </trkpt>
      <trkpt lat="43.69399" lon="7.07993">
        <ele>130</ele>
        <time>2014-12-29T14:18:32.000Z</time>
      </trkpt>
      <trkpt lat="43.69397" lon="7.07992">
        <ele>129.60000610352</ele>
        <time>2014-12-29T14:18:33.000Z</time>
      </trkpt>
      <trkpt lat="43.69395" lon="7.07993">
        <ele>128.80000305176</ele>
        <time>2014-12-29T14:18:34.000Z</time>
      </trkpt>
      <trkpt lat="43.69393" lon="7.07993">
        <ele>128.19999694824</ele>
        <time>2014-12-29T14:18:35.000Z</time>
      </trkpt>
      <trkpt lat="43.69391" lon="7.07993">
        <ele>127.59999847412</ele>
        <time>2014-12-29T14:18:36.000Z</time>
      </trkpt>
      <trkpt lat="43.6939" lon="7.07993">
        <ele>127</ele>
        <time>2014-12-29T14:18:37.000Z</time>
      </trkpt>
      <trkpt lat="43.69389" lon="7.07992">
        <ele>126.19999694824</ele>
        <time>2014-12-29T14:18:38.000Z</time>
      </trkpt>
      <trkpt lat="43.69388" lon="7.07993">
        <ele>126.19999694824</ele>
        <time>2014-12-29T14:18:39.000Z</time>
      </trkpt>
      <trkpt lat="43.69381" lon="7.07991">
        <ele>126.19999694824</ele>
        <time>2014-12-29T14:18:47.000Z</time>
      </trkpt>
      <trkpt lat="43.6938" lon="7.0799">
        <ele>126.19999694824</ele>
        <time>2014-12-29T14:18:48.000Z</time>
      </trkpt>
      <trkpt lat="43.69367" lon="7.07987">
        <ele>126.19999694824</ele>
        <time>2014-12-29T14:19:31.000Z</time>
      </trkpt>
      <trkpt lat="43.69364" lon="7.07986">
        <ele>126.19999694824</ele>
        <time>2014-12-29T14:19:33.000Z</time>
      </trkpt>
      <trkpt lat="43.69352" lon="7.07988">
        <ele>126.19999694824</ele>
        <time>2014-12-29T14:19:40.000Z</time>
      </trkpt>
      <trkpt lat="43.69345" lon="7.07987">
        <ele>126.80000305176</ele>
        <time>2014-12-29T14:19:44.000Z</time>
      </trkpt>
      <trkpt lat="43.69343" lon="7.07987">
        <ele>127.19999694824</ele>
        <time>2014-12-29T14:19:45.000Z</time>
      </trkpt>
      <trkpt lat="43.69341" lon="7.07986">
        <ele>127.59999847412</ele>
        <time>2014-12-29T14:19:46.000Z</time>
      </trkpt>
      <trkpt lat="43.69339" lon="7.07985">
        <ele>128</ele>
        <time>2014-12-29T14:19:47.000Z</time>
      </trkpt>
      <trkpt lat="43.69338" lon="7.07985">
        <ele>128.39999389648</ele>
        <time>2014-12-29T14:19:48.000Z</time>
      </trkpt>
      <trkpt lat="43.69335" lon="7.07985">
        <ele>128.39999389648</ele>
        <time>2014-12-29T14:19:49.000Z</time>
      </trkpt>
      <trkpt lat="43.69329" lon="7.07982">
        <ele>128.39999389648</ele>
        <time>2014-12-29T14:19:53.000Z</time>
      </trkpt>
      <trkpt lat="43.69325" lon="7.0798">
        <ele>128.80000305176</ele>
        <time>2014-12-29T14:19:55.000Z</time>
      </trkpt>
      <trkpt lat="43.69322" lon="7.07978">
        <ele>129.19999694824</ele>
        <time>2014-12-29T14:19:56.000Z</time>
      </trkpt>
      <trkpt lat="43.6932" lon="7.07978">
        <ele>129.60000610352</ele>
        <time>2014-12-29T14:19:57.000Z</time>
      </trkpt>
      <trkpt lat="43.69318" lon="7.07978">
        <ele>130</ele>
        <time>2014-12-29T14:19:58.000Z</time>
      </trkpt>
      <trkpt lat="43.69316" lon="7.07977">
        <ele>130.60000610352</ele>
        <time>2014-12-29T14:19:59.000Z</time>
      </trkpt>
      <trkpt lat="43.6931" lon="7.07974">
        <ele>130.60000610352</ele>
        <time>2014-12-29T14:20:01.000Z</time>
      </trkpt>
      <trkpt lat="43.69289" lon="7.07971">
        <ele>130.60000610352</ele>
        <time>2014-12-29T14:20:09.000Z</time>
      </trkpt>
      <trkpt lat="43.69276" lon="7.07977">
        <ele>130.60000610352</ele>
        <time>2014-12-29T14:20:16.000Z</time>
      </trkpt>
      <trkpt lat="43.69271" lon="7.07975">
        <ele>130.60000610352</ele>
        <time>2014-12-29T14:20:20.000Z</time>
      </trkpt>
      <trkpt lat="43.69323" lon="7.08065">
        <ele>157</ele>
        <time>2014-12-29T14:22:33.000Z</time>
      </trkpt>
      <trkpt lat="43.69324" lon="7.08065">
        <ele>157</ele>
        <time>2014-12-29T14:22:34.000Z</time>
      </trkpt>
      <trkpt lat="43.69328" lon="7.08068">
        <ele>157.39999389648</ele>
        <time>2014-12-29T14:22:37.000Z</time>
      </trkpt>
      <trkpt lat="43.6933" lon="7.08069">
        <ele>157.80000305176</ele>
        <time>2014-12-29T14:22:38.000Z</time>
      </trkpt>
      <trkpt lat="43.69331" lon="7.0807">
        <ele>158.39999389648</ele>
        <time>2014-12-29T14:22:39.000Z</time>
      </trkpt>
      <trkpt lat="43.69332" lon="7.0807">
        <ele>158.80000305176</ele>
        <time>2014-12-29T14:22:40.000Z</time>
      </trkpt>
      <trkpt lat="43.69333" lon="7.0807">
        <ele>159.19999694824</ele>
        <time>2014-12-29T14:22:41.000Z</time>
      </trkpt>
      <trkpt lat="43.69335" lon="7.08071">
        <ele>159.19999694824</ele>
        <time>2014-12-29T14:22:42.000Z</time>
      </trkpt>
      <trkpt lat="43.69339" lon="7.08073">
        <ele>159.60000610352</ele>
        <time>2014-12-29T14:22:46.000Z</time>
      </trkpt>
      <trkpt lat="43.6934" lon="7.08073">
        <ele>160</ele>
        <time>2014-12-29T14:22:47.000Z</time>
      </trkpt>
      <trkpt lat="43.6934" lon="7.08073">
        <ele>160.39999389648</ele>
        <time>2014-12-29T14:22:48.000Z</time>
      </trkpt>
      <trkpt lat="43.69341" lon="7.08073">
        <ele>160.80000305176</ele>
        <time>2014-12-29T14:22:49.000Z</time>
      </trkpt>
      <trkpt lat="43.69341" lon="7.08074">
        <ele>161.19999694824</ele>
        <time>2014-12-29T14:22:50.000Z</time>
      </trkpt>
      <trkpt lat="43.69345" lon="7.08077">
        <ele>161.80000305176</ele>
        <time>2014-12-29T14:22:54.000Z</time>
      </trkpt>
      <trkpt lat="43.69347" lon="7.08077">
        <ele>162.19999694824</ele>
        <time>2014-12-29T14:22:55.000Z</time>
      </trkpt>
      <trkpt lat="43.69349" lon="7.08078">
        <ele>162.60000610352</ele>
        <time>2014-12-29T14:22:56.000Z</time>
      </trkpt>
      <trkpt lat="43.69352" lon="7.08078">
        <ele>163</ele>
        <time>2014-12-29T14:22:57.000Z</time>
      </trkpt>
      <trkpt lat="43.69354" lon="7.08079">
        <ele>163.39999389648</ele>
        <time>2014-12-29T14:22:58.000Z</time>
      </trkpt>
      <trkpt lat="43.69372" lon="7.08089">
        <ele>163.39999389648</ele>
        <time>2014-12-29T14:23:05.000Z</time>
      </trkpt>
      <trkpt lat="43.69374" lon="7.0809">
        <ele>163.80000305176</ele>
        <time>2014-12-29T14:23:06.000Z</time>
      </trkpt>
      <trkpt lat="43.69376" lon="7.08091">
        <ele>164.19999694824</ele>
        <time>2014-12-29T14:23:07.000Z</time>
      </trkpt>
      <trkpt lat="43.69378" lon="7.08092">
        <ele>164.60000610352</ele>
        <time>2014-12-29T14:23:08.000Z</time>
      </trkpt>
      <trkpt lat="43.6938" lon="7.08093">
        <ele>165</ele>
        <time>2014-12-29T14:23:09.000Z</time>
      </trkpt>
      <trkpt lat="43.69383" lon="7.08094">
        <ele>165.39999389648</ele>
        <time>2014-12-29T14:23:10.000Z</time>
      </trkpt>
      <trkpt lat="43.69392" lon="7.08102">
        <ele>165.39999389648</ele>
        <time>2014-12-29T14:23:14.000Z</time>
      </trkpt>
      <trkpt lat="43.69406" lon="7.08109">
        <ele>165.39999389648</ele>
        <time>2014-12-29T14:23:21.000Z</time>
      </trkpt>
      <trkpt lat="43.69428" lon="7.08123">
        <ele>165.80000305176</ele>
        <time>2014-12-29T14:23:30.000Z</time>
      </trkpt>
      <trkpt lat="43.69431" lon="7.08124">
        <ele>166.19999694824</ele>
        <time>2014-12-29T14:23:31.000Z</time>
      </trkpt>
      <trkpt lat="43.69433" lon="7.08125">
        <ele>166.60000610352</ele>
        <time>2014-12-29T14:23:32.000Z</time>
      </trkpt>
      <trkpt lat="43.69435" lon="7.08125">
        <ele>167</ele>
        <time>2014-12-29T14:23:33.000Z</time>
      </trkpt>
      <trkpt lat="43.69437" lon="7.08125">
        <ele>167.60000610352</ele>
        <time>2014-12-29T14:23:34.000Z</time>
      </trkpt>
      <trkpt lat="43.69443" lon="7.0813">
        <ele>167.60000610352</ele>
        <time>2014-12-29T14:23:37.000Z</time>
      </trkpt>
      <trkpt lat="43.69449" lon="7.08135">
        <ele>168</ele>
        <time>2014-12-29T14:23:40.000Z</time>
      </trkpt>
      <trkpt lat="43.6945" lon="7.08136">
        <ele>168.39999389648</ele>
        <time>2014-12-29T14:23:41.000Z</time>
      </trkpt>
      <trkpt lat="43.69452" lon="7.08136">
        <ele>168.80000305176</ele>
        <time>2014-12-29T14:23:42.000Z</time>
      </trkpt>
      <trkpt lat="43.69453" lon="7.08137">
        <ele>169.19999694824</ele>
        <time>2014-12-29T14:23:43.000Z</time>
      </trkpt>
      <trkpt lat="43.69454" lon="7.08137">
        <ele>169.80000305176</ele>
        <time>2014-12-29T14:23:44.000Z</time>
      </trkpt>
      <trkpt lat="43.69462" lon="7.0815">
        <ele>169.80000305176</ele>
        <time>2014-12-29T14:23:51.000Z</time>
      </trkpt>
      <trkpt lat="43.69462" lon="7.08152">
        <ele>170.19999694824</ele>
        <time>2014-12-29T14:23:52.000Z</time>
      </trkpt>
      <trkpt lat="43.69463" lon="7.08153">
        <ele>170.60000610352</ele>
        <time>2014-12-29T14:23:53.000Z</time>
      </trkpt>
      <trkpt lat="43.69464" lon="7.08154">
        <ele>171</ele>
        <time>2014-12-29T14:23:54.000Z</time>
      </trkpt>
      <trkpt lat="43.69465" lon="7.08157">
        <ele>171.39999389648</ele>
        <time>2014-12-29T14:23:55.000Z</time>
      </trkpt>
      <trkpt lat="43.69465" lon="7.08159">
        <ele>171.80000305176</ele>
        <time>2014-12-29T14:23:56.000Z</time>
      </trkpt>
      <trkpt lat="43.69466" lon="7.08165">
        <ele>171.80000305176</ele>
        <time>2014-12-29T14:23:58.000Z</time>
      </trkpt>
      <trkpt lat="43.69469" lon="7.08181">
        <ele>172.19999694824</ele>
        <time>2014-12-29T14:24:04.000Z</time>
      </trkpt>
      <trkpt lat="43.69469" lon="7.08184">
        <ele>172.60000610352</ele>
        <time>2014-12-29T14:24:05.000Z</time>
      </trkpt>
      <trkpt lat="43.69469" lon="7.08186">
        <ele>173</ele>
        <time>2014-12-29T14:24:06.000Z</time>
      </trkpt>
      <trkpt lat="43.69471" lon="7.08188">
        <ele>173.60000610352</ele>
        <time>2014-12-29T14:24:07.000Z</time>
      </trkpt>
      <trkpt lat="43.69473" lon="7.0819">
        <ele>174</ele>
        <time>2014-12-29T14:24:08.000Z</time>
      </trkpt>
      <trkpt lat="43.6948" lon="7.08206">
        <ele>174</ele>
        <time>2014-12-29T14:24:14.000Z</time>
      </trkpt>
      <trkpt lat="43.69487" lon="7.08224">
        <ele>174.39999389648</ele>
        <time>2014-12-29T14:24:21.000Z</time>
      </trkpt>
      <trkpt lat="43.69488" lon="7.08227">
        <ele>174.80000305176</ele>
        <time>2014-12-29T14:24:22.000Z</time>
      </trkpt>
      <trkpt lat="43.69489" lon="7.08229">
        <ele>175.19999694824</ele>
        <time>2014-12-29T14:24:23.000Z</time>
      </trkpt>
      <trkpt lat="43.6949" lon="7.08232">
        <ele>175.60000610352</ele>
        <time>2014-12-29T14:24:24.000Z</time>
      </trkpt>
      <trkpt lat="43.6949" lon="7.08235">
        <ele>176.19999694824</ele>
        <time>2014-12-29T14:24:25.000Z</time>
      </trkpt>
      <trkpt lat="43.69492" lon="7.08244">
        <ele>176.19999694824</ele>
        <time>2014-12-29T14:24:28.000Z</time>
      </trkpt>
      <trkpt lat="43.69502" lon="7.08249">
        <ele>176.19999694824</ele>
        <time>2014-12-29T14:24:34.000Z</time>
      </trkpt>
      <trkpt lat="43.69507" lon="7.08248">
        <ele>176.19999694824</ele>
        <time>2014-12-29T14:24:36.000Z</time>
      </trkpt>
      <trkpt lat="43.69511" lon="7.08247">
        <ele>176.19999694824</ele>
        <time>2014-12-29T14:24:38.000Z</time>
      </trkpt>
      <trkpt lat="43.69517" lon="7.08241">
        <ele>176.19999694824</ele>
        <time>2014-12-29T14:24:43.000Z</time>
      </trkpt>
      <trkpt lat="43.69519" lon="7.08241">
        <ele>176.19999694824</ele>
        <time>2014-12-29T14:24:44.000Z</time>
      </trkpt>
      <trkpt lat="43.69526" lon="7.0824">
        <ele>176.60000610352</ele>
        <time>2014-12-29T14:24:47.000Z</time>
      </trkpt>
      <trkpt lat="43.69528" lon="7.08239">
        <ele>177</ele>
        <time>2014-12-29T14:24:48.000Z</time>
      </trkpt>
      <trkpt lat="43.6953" lon="7.08238">
        <ele>177.39999389648</ele>
        <time>2014-12-29T14:24:49.000Z</time>
      </trkpt>
      <trkpt lat="43.69532" lon="7.08237">
        <ele>177.80000305176</ele>
        <time>2014-12-29T14:24:50.000Z</time>
      </trkpt>
      <trkpt lat="43.69533" lon="7.08237">
        <ele>178.19999694824</ele>
        <time>2014-12-29T14:24:51.000Z</time>
      </trkpt>
      <trkpt lat="43.69541" lon="7.08233">
        <ele>178.60000610352</ele>
        <time>2014-12-29T14:24:56.000Z</time>
      </trkpt>
      <trkpt lat="43.69542" lon="7.08232">
        <ele>179</ele>
        <time>2014-12-29T14:24:57.000Z</time>
      </trkpt>
      <trkpt lat="43.69544" lon="7.08232">
        <ele>179.39999389648</ele>
        <time>2014-12-29T14:24:58.000Z</time>
      </trkpt>
      <trkpt lat="43.69545" lon="7.08232">
        <ele>179.80000305176</ele>
        <time>2014-12-29T14:24:59.000Z</time>
      </trkpt>
      <trkpt lat="43.69547" lon="7.08232">
        <ele>180.19999694824</ele>
        <time>2014-12-29T14:25:00.000Z</time>
      </trkpt>
      <trkpt lat="43.69549" lon="7.08232">
        <ele>180.19999694824</ele>
        <time>2014-12-29T14:25:01.000Z</time>
      </trkpt>
      <trkpt lat="43.69564" lon="7.08234">
        <ele>182.39999389648</ele>
        <time>2014-12-29T14:27:18.000Z</time>
      </trkpt>
      <trkpt lat="43.6957" lon="7.08236">
        <ele>182.39999389648</ele>
        <time>2014-12-29T14:27:20.000Z</time>
      </trkpt>
      <trkpt lat="43.69573" lon="7.08236">
        <ele>182.80000305176</ele>
        <time>2014-12-29T14:27:21.000Z</time>
      </trkpt>
      <trkpt lat="43.69581" lon="7.08239">
        <ele>183.39999389648</ele>
        <time>2014-12-29T14:27:22.000Z</time>
      </trkpt>
      <trkpt lat="43.69587" lon="7.08242">
        <ele>183.80000305176</ele>
        <time>2014-12-29T14:27:23.000Z</time>
      </trkpt>
      <trkpt lat="43.69592" lon="7.08243">
        <ele>184.19999694824</ele>
        <time>2014-12-29T14:27:24.000Z</time>
      </trkpt>
      <trkpt lat="43.69595" lon="7.08244">
        <ele>184.60000610352</ele>
        <time>2014-12-29T14:27:25.000Z</time>
      </trkpt>
      <trkpt lat="43.696" lon="7.08246">
        <ele>185.19999694824</ele>
        <time>2014-12-29T14:27:27.000Z</time>
      </trkpt>
      <trkpt lat="43.69603" lon="7.08247">
        <ele>185.60000610352</ele>
        <time>2014-12-29T14:27:28.000Z</time>
      </trkpt>
      <trkpt lat="43.69605" lon="7.08247">
        <ele>186</ele>
        <time>2014-12-29T14:27:29.000Z</time>
      </trkpt>
      <trkpt lat="43.69608" lon="7.08248">
        <ele>186.39999389648</ele>
        <time>2014-12-29T14:27:30.000Z</time>
      </trkpt>
      <trkpt lat="43.6961" lon="7.0825">
        <ele>186.80000305176</ele>
        <time>2014-12-29T14:27:31.000Z</time>
      </trkpt>
      <trkpt lat="43.69612" lon="7.08253">
        <ele>186.80000305176</ele>
        <time>2014-12-29T14:27:32.000Z</time>
      </trkpt>
      <trkpt lat="43.69625" lon="7.08271">
        <ele>186.80000305176</ele>
        <time>2014-12-29T14:27:39.000Z</time>
      </trkpt>
      <trkpt lat="43.6964" lon="7.08279">
        <ele>186.80000305176</ele>
        <time>2014-12-29T14:27:45.000Z</time>
      </trkpt>
      <trkpt lat="43.69651" lon="7.0829">
        <ele>186.80000305176</ele>
        <time>2014-12-29T14:27:51.000Z</time>
      </trkpt>
      <trkpt lat="43.6967" lon="7.08301">
        <ele>187.39999389648</ele>
        <time>2014-12-29T14:28:00.000Z</time>
      </trkpt>
      <trkpt lat="43.69672" lon="7.08301">
        <ele>187.80000305176</ele>
        <time>2014-12-29T14:28:01.000Z</time>
      </trkpt>
      <trkpt lat="43.69674" lon="7.08302">
        <ele>188.19999694824</ele>
        <time>2014-12-29T14:28:02.000Z</time>
      </trkpt>
      <trkpt lat="43.69676" lon="7.08302">
        <ele>188.60000610352</ele>
        <time>2014-12-29T14:28:03.000Z</time>
      </trkpt>
      <trkpt lat="43.69677" lon="7.08302">
        <ele>189</ele>
        <time>2014-12-29T14:28:04.000Z</time>
      </trkpt>
      <trkpt lat="43.69681" lon="7.08304">
        <ele>189.39999389648</ele>
        <time>2014-12-29T14:28:06.000Z</time>
      </trkpt>
      <trkpt lat="43.69683" lon="7.08306">
        <ele>189.80000305176</ele>
        <time>2014-12-29T14:28:07.000Z</time>
      </trkpt>
      <trkpt lat="43.69685" lon="7.08306">
        <ele>190.19999694824</ele>
        <time>2014-12-29T14:28:08.000Z</time>
      </trkpt>
      <trkpt lat="43.69687" lon="7.08308">
        <ele>190.60000610352</ele>
        <time>2014-12-29T14:28:09.000Z</time>
      </trkpt>
      <trkpt lat="43.69688" lon="7.08309">
        <ele>191</ele>
        <time>2014-12-29T14:28:10.000Z</time>
      </trkpt>
      <trkpt lat="43.69695" lon="7.08316">
        <ele>191</ele>
        <time>2014-12-29T14:28:14.000Z</time>
      </trkpt>
      <trkpt lat="43.69707" lon="7.08335">
        <ele>191</ele>
        <time>2014-12-29T14:28:22.000Z</time>
      </trkpt>
      <trkpt lat="43.69711" lon="7.08339">
        <ele>191.60000610352</ele>
        <time>2014-12-29T14:28:24.000Z</time>
      </trkpt>
      <trkpt lat="43.69713" lon="7.08341">
        <ele>192</ele>
        <time>2014-12-29T14:28:25.000Z</time>
      </trkpt>
      <trkpt lat="43.69715" lon="7.08343">
        <ele>192.39999389648</ele>
        <time>2014-12-29T14:28:26.000Z</time>
      </trkpt>
      <trkpt lat="43.69718" lon="7.08345">
        <ele>193</ele>
        <time>2014-12-29T14:28:27.000Z</time>
      </trkpt>
      <trkpt lat="43.6972" lon="7.08347">
        <ele>193.39999389648</ele>
        <time>2014-12-29T14:28:28.000Z</time>
      </trkpt>
      <trkpt lat="43.69723" lon="7.08347">
        <ele>193.39999389648</ele>
        <time>2014-12-29T14:28:29.000Z</time>
      </trkpt>
      <trkpt lat="43.69735" lon="7.08364">
        <ele>193.39999389648</ele>
        <time>2014-12-29T14:28:35.000Z</time>
      </trkpt>
      <trkpt lat="43.69736" lon="7.08367">
        <ele>193.39999389648</ele>
        <time>2014-12-29T14:28:36.000Z</time>
      </trkpt>
      <trkpt lat="43.69742" lon="7.08372">
        <ele>193.39999389648</ele>
        <time>2014-12-29T14:28:39.000Z</time>
      </trkpt>
      <trkpt lat="43.69747" lon="7.08374">
        <ele>193.80000305176</ele>
        <time>2014-12-29T14:28:41.000Z</time>
      </trkpt>
      <trkpt lat="43.69749" lon="7.08375">
        <ele>194.19999694824</ele>
        <time>2014-12-29T14:28:42.000Z</time>
      </trkpt>
      <trkpt lat="43.69752" lon="7.08376">
        <ele>194.60000610352</ele>
        <time>2014-12-29T14:28:43.000Z</time>
      </trkpt>
      <trkpt lat="43.69754" lon="7.08377">
        <ele>195</ele>
        <time>2014-12-29T14:28:44.000Z</time>
      </trkpt>
      <trkpt lat="43.69755" lon="7.08379">
        <ele>195.39999389648</ele>
        <time>2014-12-29T14:28:45.000Z</time>
      </trkpt>
      <trkpt lat="43.69765" lon="7.08393">
        <ele>195.39999389648</ele>
        <time>2014-12-29T14:28:51.000Z</time>
      </trkpt>
      <trkpt lat="43.69779" lon="7.08401">
        <ele>195.39999389648</ele>
        <time>2014-12-29T14:28:58.000Z</time>
      </trkpt>
      <trkpt lat="43.69785" lon="7.08404">
        <ele>196</ele>
        <time>2014-12-29T14:29:01.000Z</time>
      </trkpt>
      <trkpt lat="43.69787" lon="7.08404">
        <ele>196.39999389648</ele>
        <time>2014-12-29T14:29:02.000Z</time>
      </trkpt>
      <trkpt lat="43.69791" lon="7.08407">
        <ele>196.80000305176</ele>
        <time>2014-12-29T14:29:03.000Z</time>
      </trkpt>
      <trkpt lat="43.69793" lon="7.08409">
        <ele>197.39999389648</ele>
        <time>2014-12-29T14:29:04.000Z</time>
      </trkpt>
      <trkpt lat="43.69795" lon="7.0841">
        <ele>197.80000305176</ele>
        <time>2014-12-29T14:29:05.000Z</time>
      </trkpt>
      <trkpt lat="43.69801" lon="7.08411">
        <ele>198.19999694824</ele>
        <time>2014-12-29T14:29:08.000Z</time>
      </trkpt>
      <trkpt lat="43.69803" lon="7.08412">
        <ele>198.80000305176</ele>
        <time>2014-12-29T14:29:09.000Z</time>
      </trkpt>
      <trkpt lat="43.69805" lon="7.08413">
        <ele>199.19999694824</ele>
        <time>2014-12-29T14:29:10.000Z</time>
      </trkpt>
      <trkpt lat="43.69806" lon="7.08415">
        <ele>199.60000610352</ele>
        <time>2014-12-29T14:29:11.000Z</time>
      </trkpt>
      <trkpt lat="43.69808" lon="7.08418">
        <ele>200</ele>
        <time>2014-12-29T14:29:12.000Z</time>
      </trkpt>
      <trkpt lat="43.69814" lon="7.08426">
        <ele>200</ele>
        <time>2014-12-29T14:29:16.000Z</time>
      </trkpt>
      <trkpt lat="43.69823" lon="7.08436">
        <ele>200</ele>
        <time>2014-12-29T14:29:22.000Z</time>
      </trkpt>
      <trkpt lat="43.69834" lon="7.08451">
        <ele>200</ele>
        <time>2014-12-29T14:29:29.000Z</time>
      </trkpt>
      <trkpt lat="43.69849" lon="7.08464">
        <ele>200</ele>
        <time>2014-12-29T14:29:35.000Z</time>
      </trkpt>
      <trkpt lat="43.69861" lon="7.0847">
        <ele>200</ele>
        <time>2014-12-29T14:29:40.000Z</time>
      </trkpt>
      <trkpt lat="43.69872" lon="7.08482">
        <ele>200</ele>
        <time>2014-12-29T14:29:45.000Z</time>
      </trkpt>
      <trkpt lat="43.69886" lon="7.08495">
        <ele>200</ele>
        <time>2014-12-29T14:29:53.000Z</time>
      </trkpt>
      <trkpt lat="43.69894" lon="7.08499">
        <ele>200.39999389648</ele>
        <time>2014-12-29T14:29:56.000Z</time>
      </trkpt>
      <trkpt lat="43.69896" lon="7.08501">
        <ele>201</ele>
        <time>2014-12-29T14:29:57.000Z</time>
      </trkpt>
      <trkpt lat="43.69898" lon="7.08503">
        <ele>201.39999389648</ele>
        <time>2014-12-29T14:29:58.000Z</time>
      </trkpt>
      <trkpt lat="43.699" lon="7.08507">
        <ele>201.80000305176</ele>
        <time>2014-12-29T14:29:59.000Z</time>
      </trkpt>
      <trkpt lat="43.69901" lon="7.0851">
        <ele>202.19999694824</ele>
        <time>2014-12-29T14:30:00.000Z</time>
      </trkpt>
      <trkpt lat="43.69901" lon="7.08512">
        <ele>202.19999694824</ele>
        <time>2014-12-29T14:30:01.000Z</time>
      </trkpt>
      <trkpt lat="43.69905" lon="7.08534">
        <ele>201.80000305176</ele>
        <time>2014-12-29T14:30:09.000Z</time>
      </trkpt>
      <trkpt lat="43.69908" lon="7.0854">
        <ele>201.19999694824</ele>
        <time>2014-12-29T14:30:10.000Z</time>
      </trkpt>
      <trkpt lat="43.6991" lon="7.08543">
        <ele>200.80000305176</ele>
        <time>2014-12-29T14:30:11.000Z</time>
      </trkpt>
      <trkpt lat="43.69911" lon="7.08546">
        <ele>200.39999389648</ele>
        <time>2014-12-29T14:30:12.000Z</time>
      </trkpt>
      <trkpt lat="43.69913" lon="7.08548">
        <ele>199.80000305176</ele>
        <time>2014-12-29T14:30:13.000Z</time>
      </trkpt>
      <trkpt lat="43.69914" lon="7.08553">
        <ele>199.80000305176</ele>
        <time>2014-12-29T14:30:14.000Z</time>
      </trkpt>
      <trkpt lat="43.69924" lon="7.0857">
        <ele>199.80000305176</ele>
        <time>2014-12-29T14:30:19.000Z</time>
      </trkpt>
      <trkpt lat="43.69935" lon="7.08585">
        <ele>199.80000305176</ele>
        <time>2014-12-29T14:30:26.000Z</time>
      </trkpt>
      <trkpt lat="43.69935" lon="7.08603">
        <ele>199.80000305176</ele>
        <time>2014-12-29T14:30:32.000Z</time>
      </trkpt>
      <trkpt lat="43.69936" lon="7.08606">
        <ele>199.80000305176</ele>
        <time>2014-12-29T14:30:33.000Z</time>
      </trkpt>
      <trkpt lat="43.69937" lon="7.08616">
        <ele>199.39999389648</ele>
        <time>2014-12-29T14:30:37.000Z</time>
      </trkpt>
      <trkpt lat="43.69937" lon="7.0862">
        <ele>199</ele>
        <time>2014-12-29T14:30:38.000Z</time>
      </trkpt>
      <trkpt lat="43.69937" lon="7.08622">
        <ele>198.60000610352</ele>
        <time>2014-12-29T14:30:39.000Z</time>
      </trkpt>
      <trkpt lat="43.69936" lon="7.08626">
        <ele>198.19999694824</ele>
        <time>2014-12-29T14:30:40.000Z</time>
      </trkpt>
      <trkpt lat="43.69936" lon="7.08629">
        <ele>197.80000305176</ele>
        <time>2014-12-29T14:30:41.000Z</time>
      </trkpt>
      <trkpt lat="43.69934" lon="7.08636">
        <ele>197.39999389648</ele>
        <time>2014-12-29T14:30:44.000Z</time>
      </trkpt>
      <trkpt lat="43.69933" lon="7.08637">
        <ele>197</ele>
        <time>2014-12-29T14:30:45.000Z</time>
      </trkpt>
      <trkpt lat="43.69932" lon="7.0864">
        <ele>196.60000610352</ele>
        <time>2014-12-29T14:30:46.000Z</time>
      </trkpt>
      <trkpt lat="43.69931" lon="7.08643">
        <ele>196.19999694824</ele>
        <time>2014-12-29T14:30:47.000Z</time>
      </trkpt>
      <trkpt lat="43.6993" lon="7.08646">
        <ele>195.80000305176</ele>
        <time>2014-12-29T14:30:48.000Z</time>
      </trkpt>
      <trkpt lat="43.69928" lon="7.08649">
        <ele>195.39999389648</ele>
        <time>2014-12-29T14:30:50.000Z</time>
      </trkpt>
      <trkpt lat="43.69928" lon="7.08651">
        <ele>195</ele>
        <time>2014-12-29T14:30:51.000Z</time>
      </trkpt>
      <trkpt lat="43.69929" lon="7.08655">
        <ele>194.39999389648</ele>
        <time>2014-12-29T14:30:52.000Z</time>
      </trkpt>
      <trkpt lat="43.69928" lon="7.08658">
        <ele>194</ele>
        <time>2014-12-29T14:30:53.000Z</time>
      </trkpt>
      <trkpt lat="43.69928" lon="7.08662">
        <ele>193.60000610352</ele>
        <time>2014-12-29T14:30:54.000Z</time>
      </trkpt>
      <trkpt lat="43.69927" lon="7.08663">
        <ele>193.60000610352</ele>
        <time>2014-12-29T14:30:55.000Z</time>
      </trkpt>
      <trkpt lat="43.69924" lon="7.08668">
        <ele>193.19999694824</ele>
        <time>2014-12-29T14:30:57.000Z</time>
      </trkpt>
      <trkpt lat="43.69922" lon="7.08669">
        <ele>192.80000305176</ele>
        <time>2014-12-29T14:30:58.000Z</time>
      </trkpt>
      <trkpt lat="43.69919" lon="7.08672">
        <ele>192.19999694824</ele>
        <time>2014-12-29T14:30:59.000Z</time>
      </trkpt>
      <trkpt lat="43.69916" lon="7.08674">
        <ele>191.80000305176</ele>
        <time>2014-12-29T14:31:00.000Z</time>
      </trkpt>
      <trkpt lat="43.69914" lon="7.08675">
        <ele>191.39999389648</ele>
        <time>2014-12-29T14:31:01.000Z</time>
      </trkpt>
      <trkpt lat="43.69913" lon="7.08676">
        <ele>190.80000305176</ele>
        <time>2014-12-29T14:31:02.000Z</time>
      </trkpt>
      <trkpt lat="43.69912" lon="7.08677">
        <ele>190.39999389648</ele>
        <time>2014-12-29T14:31:03.000Z</time>
      </trkpt>
      <trkpt lat="43.6991" lon="7.08677">
        <ele>189.80000305176</ele>
        <time>2014-12-29T14:31:04.000Z</time>
      </trkpt>
      <trkpt lat="43.69908" lon="7.08679">
        <ele>189.39999389648</ele>
        <time>2014-12-29T14:31:05.000Z</time>
      </trkpt>
      <trkpt lat="43.69907" lon="7.08681">
        <ele>188.80000305176</ele>
        <time>2014-12-29T14:31:06.000Z</time>
      </trkpt>
      <trkpt lat="43.69905" lon="7.08691">
        <ele>188.39999389648</ele>
        <time>2014-12-29T14:31:09.000Z</time>
      </trkpt>
      <trkpt lat="43.69903" lon="7.08694">
        <ele>187.80000305176</ele>
        <time>2014-12-29T14:31:10.000Z</time>
      </trkpt>
      <trkpt lat="43.69902" lon="7.08696">
        <ele>187.19999694824</ele>
        <time>2014-12-29T14:31:11.000Z</time>
      </trkpt>
      <trkpt lat="43.69901" lon="7.08699">
        <ele>186.60000610352</ele>
        <time>2014-12-29T14:31:12.000Z</time>
      </trkpt>
      <trkpt lat="43.69901" lon="7.08701">
        <ele>186</ele>
        <time>2014-12-29T14:31:13.000Z</time>
      </trkpt>
      <trkpt lat="43.69903" lon="7.08711">
        <ele>186</ele>
        <time>2014-12-29T14:31:17.000Z</time>
      </trkpt>
      <trkpt lat="43.69902" lon="7.08715">
        <ele>186</ele>
        <time>2014-12-29T14:31:19.000Z</time>
      </trkpt>
      <trkpt lat="43.69908" lon="7.08725">
        <ele>186.39999389648</ele>
        <time>2014-12-29T14:31:23.000Z</time>
      </trkpt>
      <trkpt lat="43.69908" lon="7.08725">
        <ele>186.80000305176</ele>
        <time>2014-12-29T14:31:24.000Z</time>
      </trkpt>
      <trkpt lat="43.69909" lon="7.08727">
        <ele>187.19999694824</ele>
        <time>2014-12-29T14:31:25.000Z</time>
      </trkpt>
      <trkpt lat="43.69911" lon="7.08728">
        <ele>187.80000305176</ele>
        <time>2014-12-29T14:31:26.000Z</time>
      </trkpt>
      <trkpt lat="43.69911" lon="7.08729">
        <ele>188.19999694824</ele>
        <time>2014-12-29T14:31:27.000Z</time>
      </trkpt>
      <trkpt lat="43.69913" lon="7.08728">
        <ele>188.60000610352</ele>
        <time>2014-12-29T14:31:29.000Z</time>
      </trkpt>
      <trkpt lat="43.69915" lon="7.08729">
        <ele>189</ele>
        <time>2014-12-29T14:31:30.000Z</time>
      </trkpt>
      <trkpt lat="43.69916" lon="7.08729">
        <ele>189.39999389648</ele>
        <time>2014-12-29T14:31:31.000Z</time>
      </trkpt>
      <trkpt lat="43.69918" lon="7.0873">
        <ele>189.80000305176</ele>
        <time>2014-12-29T14:31:32.000Z</time>
      </trkpt>
      <trkpt lat="43.69919" lon="7.0873">
        <ele>190.19999694824</ele>
        <time>2014-12-29T14:31:33.000Z</time>
      </trkpt>
      <trkpt lat="43.69923" lon="7.08729">
        <ele>190.60000610352</ele>
        <time>2014-12-29T14:31:36.000Z</time>
      </trkpt>
      <trkpt lat="43.69924" lon="7.08729">
        <ele>191</ele>
        <time>2014-12-29T14:31:37.000Z</time>
      </trkpt>
      <trkpt lat="43.69925" lon="7.08728">
        <ele>191.39999389648</ele>
        <time>2014-12-29T14:31:38.000Z</time>
      </trkpt>
      <trkpt lat="43.69926" lon="7.08728">
        <ele>191.80000305176</ele>
        <time>2014-12-29T14:31:39.000Z</time>
      </trkpt>
      <trkpt lat="43.69928" lon="7.08727">
        <ele>192.19999694824</ele>
        <time>2014-12-29T14:31:40.000Z</time>
      </trkpt>
      <trkpt lat="43.69935" lon="7.08725">
        <ele>192.80000305176</ele>
        <time>2014-12-29T14:31:44.000Z</time>
      </trkpt>
      <trkpt lat="43.69936" lon="7.08725">
        <ele>193.19999694824</ele>
        <time>2014-12-29T14:31:45.000Z</time>
      </trkpt>
      <trkpt lat="43.69937" lon="7.08724">
        <ele>193.60000610352</ele>
        <time>2014-12-29T14:31:46.000Z</time>
      </trkpt>
      <trkpt lat="43.69938" lon="7.08723">
        <ele>194</ele>
        <time>2014-12-29T14:31:47.000Z</time>
      </trkpt>
      <trkpt lat="43.69939" lon="7.08724">
        <ele>194.60000610352</ele>
        <time>2014-12-29T14:31:48.000Z</time>
      </trkpt>
      <trkpt lat="43.69943" lon="7.08725">
        <ele>195</ele>
        <time>2014-12-29T14:31:50.000Z</time>
      </trkpt>
      <trkpt lat="43.69944" lon="7.08724">
        <ele>195.39999389648</ele>
        <time>2014-12-29T14:31:51.000Z</time>
      </trkpt>
      <trkpt lat="43.69945" lon="7.08722">
        <ele>195.80000305176</ele>
        <time>2014-12-29T14:31:52.000Z</time>
      </trkpt>
      <trkpt lat="43.69946" lon="7.08721">
        <ele>196.39999389648</ele>
        <time>2014-12-29T14:31:53.000Z</time>
      </trkpt>
      <trkpt lat="43.69947" lon="7.0872">
        <ele>196.80000305176</ele>
        <time>2014-12-29T14:31:54.000Z</time>
      </trkpt>
      <trkpt lat="43.69956" lon="7.08716">
        <ele>197.19999694824</ele>
        <time>2014-12-29T14:32:01.000Z</time>
      </trkpt>
      <trkpt lat="43.69957" lon="7.08714">
        <ele>197.60000610352</ele>
        <time>2014-12-29T14:32:02.000Z</time>
      </trkpt>
      <trkpt lat="43.69958" lon="7.08711">
        <ele>198</ele>
        <time>2014-12-29T14:32:03.000Z</time>
      </trkpt>
      <trkpt lat="43.6996" lon="7.08709">
        <ele>198.60000610352</ele>
        <time>2014-12-29T14:32:04.000Z</time>
      </trkpt>
      <trkpt lat="43.69961" lon="7.08708">
        <ele>199</ele>
        <time>2014-12-29T14:32:05.000Z</time>
      </trkpt>
      <trkpt lat="43.69967" lon="7.08704">
        <ele>199.39999389648</ele>
        <time>2014-12-29T14:32:09.000Z</time>
      </trkpt>
      <trkpt lat="43.69969" lon="7.08702">
        <ele>199.80000305176</ele>
        <time>2014-12-29T14:32:10.000Z</time>
      </trkpt>
      <trkpt lat="43.6997" lon="7.08701">
        <ele>200.19999694824</ele>
        <time>2014-12-29T14:32:11.000Z</time>
      </trkpt>
      <trkpt lat="43.69971" lon="7.08701">
        <ele>200.60000610352</ele>
        <time>2014-12-29T14:32:12.000Z</time>
      </trkpt>
      <trkpt lat="43.69973" lon="7.08701">
        <ele>201</ele>
        <time>2014-12-29T14:32:13.000Z</time>
      </trkpt>
      <trkpt lat="43.69978" lon="7.08695">
        <ele>201.39999389648</ele>
        <time>2014-12-29T14:32:16.000Z</time>
      </trkpt>
      <trkpt lat="43.6998" lon="7.08694">
        <ele>201.80000305176</ele>
        <time>2014-12-29T14:32:17.000Z</time>
      </trkpt>
      <trkpt lat="43.69982" lon="7.08693">
        <ele>202.19999694824</ele>
        <time>2014-12-29T14:32:18.000Z</time>
      </trkpt>
      <trkpt lat="43.69984" lon="7.08692">
        <ele>202.60000610352</ele>
        <time>2014-12-29T14:32:19.000Z</time>
      </trkpt>
      <trkpt lat="43.69986" lon="7.08691">
        <ele>203</ele>
        <time>2014-12-29T14:32:20.000Z</time>
      </trkpt>
      <trkpt lat="43.69991" lon="7.08689">
        <ele>203</ele>
        <time>2014-12-29T14:32:22.000Z</time>
      </trkpt>
      <trkpt lat="43.69998" lon="7.08685">
        <ele>203</ele>
        <time>2014-12-29T14:32:25.000Z</time>
      </trkpt>
      <trkpt lat="43.70007" lon="7.08686">
        <ele>203</ele>
        <time>2014-12-29T14:32:30.000Z</time>
      </trkpt>
      <trkpt lat="43.70012" lon="7.08683">
        <ele>203</ele>
        <time>2014-12-29T14:32:32.000Z</time>
      </trkpt>
      <trkpt lat="43.70044" lon="7.0867">
        <ele>207.39999389648</ele>
        <time>2014-12-29T14:34:56.000Z</time>
      </trkpt>
      <trkpt lat="43.7006" lon="7.08674">
        <ele>207.39999389648</ele>
        <time>2014-12-29T14:35:02.000Z</time>
      </trkpt>
      <trkpt lat="43.7008" lon="7.08681">
        <ele>207.80000305176</ele>
        <time>2014-12-29T14:35:09.000Z</time>
      </trkpt>
      <trkpt lat="43.70082" lon="7.08682">
        <ele>208.19999694824</ele>
        <time>2014-12-29T14:35:10.000Z</time>
      </trkpt>
      <trkpt lat="43.70085" lon="7.08683">
        <ele>208.60000610352</ele>
        <time>2014-12-29T14:35:11.000Z</time>
      </trkpt>
      <trkpt lat="43.70087" lon="7.08684">
        <ele>209</ele>
        <time>2014-12-29T14:35:12.000Z</time>
      </trkpt>
      <trkpt lat="43.70089" lon="7.08684">
        <ele>209.39999389648</ele>
        <time>2014-12-29T14:35:13.000Z</time>
      </trkpt>
      <trkpt lat="43.70096" lon="7.08681">
        <ele>209.39999389648</ele>
        <time>2014-12-29T14:35:16.000Z</time>
      </trkpt>
      <trkpt lat="43.70102" lon="7.08675">
        <ele>210</ele>
        <time>2014-12-29T14:35:19.000Z</time>
      </trkpt>
      <trkpt lat="43.70104" lon="7.08674">
        <ele>210.39999389648</ele>
        <time>2014-12-29T14:35:20.000Z</time>
      </trkpt>
      <trkpt lat="43.70107" lon="7.08674">
        <ele>210.80000305176</ele>
        <time>2014-12-29T14:35:21.000Z</time>
      </trkpt>
      <trkpt lat="43.70109" lon="7.08673">
        <ele>211.19999694824</ele>
        <time>2014-12-29T14:35:22.000Z</time>
      </trkpt>
      <trkpt lat="43.70111" lon="7.08672">
        <ele>211.60000610352</ele>
        <time>2014-12-29T14:35:23.000Z</time>
      </trkpt>
      <trkpt lat="43.70123" lon="7.08667">
        <ele>212.19999694824</ele>
        <time>2014-12-29T14:35:29.000Z</time>
      </trkpt>
      <trkpt lat="43.70125" lon="7.08666">
        <ele>212.60000610352</ele>
        <time>2014-12-29T14:35:30.000Z</time>
      </trkpt>
      <trkpt lat="43.70127" lon="7.08664">
        <ele>213</ele>
        <time>2014-12-29T14:35:31.000Z</time>
      </trkpt>
      <trkpt lat="43.7013" lon="7.08662">
        <ele>213.60000610352</ele>
        <time>2014-12-29T14:35:32.000Z</time>
      </trkpt>
      <trkpt lat="43.70132" lon="7.08661">
        <ele>214</ele>
        <time>2014-12-29T14:35:33.000Z</time>
      </trkpt>
      <trkpt lat="43.70138" lon="7.08659">
        <ele>214</ele>
        <time>2014-12-29T14:35:36.000Z</time>
      </trkpt>
      <trkpt lat="43.70158" lon="7.08655">
        <ele>214</ele>
        <time>2014-12-29T14:35:42.000Z</time>
      </trkpt>
      <trkpt lat="43.70175" lon="7.08643">
        <ele>214.39999389648</ele>
        <time>2014-12-29T14:35:49.000Z</time>
      </trkpt>
      <trkpt lat="43.70176" lon="7.08641">
        <ele>214.80000305176</ele>
        <time>2014-12-29T14:35:50.000Z</time>
      </trkpt>
      <trkpt lat="43.70178" lon="7.08639">
        <ele>215.19999694824</ele>
        <time>2014-12-29T14:35:51.000Z</time>
      </trkpt>
      <trkpt lat="43.7018" lon="7.08635">
        <ele>215.60000610352</ele>
        <time>2014-12-29T14:35:52.000Z</time>
      </trkpt>
      <trkpt lat="43.70182" lon="7.08634">
        <ele>216</ele>
        <time>2014-12-29T14:35:53.000Z</time>
      </trkpt>
      <trkpt lat="43.70194" lon="7.08625">
        <ele>216</ele>
        <time>2014-12-29T14:35:59.000Z</time>
      </trkpt>
      <trkpt lat="43.70204" lon="7.08619">
        <ele>216.39999389648</ele>
        <time>2014-12-29T14:36:04.000Z</time>
      </trkpt>
      <trkpt lat="43.70206" lon="7.08617">
        <ele>216.80000305176</ele>
        <time>2014-12-29T14:36:05.000Z</time>
      </trkpt>
      <trkpt lat="43.70207" lon="7.08614">
        <ele>217.19999694824</ele>
        <time>2014-12-29T14:36:06.000Z</time>
      </trkpt>
      <trkpt lat="43.70209" lon="7.08611">
        <ele>217.60000610352</ele>
        <time>2014-12-29T14:36:07.000Z</time>
      </trkpt>
      <trkpt lat="43.70211" lon="7.08608">
        <ele>218</ele>
        <time>2014-12-29T14:36:08.000Z</time>
      </trkpt>
      <trkpt lat="43.70221" lon="7.08597">
        <ele>218</ele>
        <time>2014-12-29T14:36:14.000Z</time>
      </trkpt>
      <trkpt lat="43.70222" lon="7.08595">
        <ele>218.60000610352</ele>
        <time>2014-12-29T14:36:15.000Z</time>
      </trkpt>
      <trkpt lat="43.70224" lon="7.08594">
        <ele>219</ele>
        <time>2014-12-29T14:36:16.000Z</time>
      </trkpt>
      <trkpt lat="43.70226" lon="7.08592">
        <ele>219.39999389648</ele>
        <time>2014-12-29T14:36:17.000Z</time>
      </trkpt>
      <trkpt lat="43.70228" lon="7.08591">
        <ele>220</ele>
        <time>2014-12-29T14:36:18.000Z</time>
      </trkpt>
      <trkpt lat="43.7023" lon="7.0859">
        <ele>220.39999389648</ele>
        <time>2014-12-29T14:36:19.000Z</time>
      </trkpt>
      <trkpt lat="43.70232" lon="7.08589">
        <ele>220.39999389648</ele>
        <time>2014-12-29T14:36:20.000Z</time>
      </trkpt>
      <trkpt lat="43.70233" lon="7.08589">
        <ele>220.39999389648</ele>
        <time>2014-12-29T14:36:21.000Z</time>
      </trkpt>
      <trkpt lat="43.70249" lon="7.0858">
        <ele>220.80000305176</ele>
        <time>2014-12-29T14:36:29.000Z</time>
      </trkpt>
      <trkpt lat="43.70251" lon="7.08579">
        <ele>221.19999694824</ele>
        <time>2014-12-29T14:36:30.000Z</time>
      </trkpt>
      <trkpt lat="43.70253" lon="7.08578">
        <ele>221.60000610352</ele>
        <time>2014-12-29T14:36:31.000Z</time>
      </trkpt>
      <trkpt lat="43.70255" lon="7.08577">
        <ele>222.19999694824</ele>
        <time>2014-12-29T14:36:32.000Z</time>
      </trkpt>
      <trkpt lat="43.70258" lon="7.08576">
        <ele>222.60000610352</ele>
        <time>2014-12-29T14:36:33.000Z</time>
      </trkpt>
      <trkpt lat="43.70262" lon="7.08574">
        <ele>222.60000610352</ele>
        <time>2014-12-29T14:36:35.000Z</time>
      </trkpt>
      <trkpt lat="43.70267" lon="7.08572">
        <ele>223</ele>
        <time>2014-12-29T14:36:37.000Z</time>
      </trkpt>
      <trkpt lat="43.70269" lon="7.08569">
        <ele>223.39999389648</ele>
        <time>2014-12-29T14:36:38.000Z</time>
      </trkpt>
      <trkpt lat="43.70271" lon="7.08567">
        <ele>223.80000305176</ele>
        <time>2014-12-29T14:36:39.000Z</time>
      </trkpt>
      <trkpt lat="43.70273" lon="7.08565">
        <ele>224.19999694824</ele>
        <time>2014-12-29T14:36:40.000Z</time>
      </trkpt>
      <trkpt lat="43.70276" lon="7.08563">
        <ele>224.60000610352</ele>
        <time>2014-12-29T14:36:41.000Z</time>
      </trkpt>
      <trkpt lat="43.70283" lon="7.0856">
        <ele>224.60000610352</ele>
        <time>2014-12-29T14:36:44.000Z</time>
      </trkpt>
      <trkpt lat="43.70302" lon="7.08551">
        <ele>224.60000610352</ele>
        <time>2014-12-29T14:36:52.000Z</time>
      </trkpt>
      <trkpt lat="43.70319" lon="7.08541">
        <ele>224.60000610352</ele>
        <time>2014-12-29T14:37:00.000Z</time>
      </trkpt>
      <trkpt lat="43.70326" lon="7.08539">
        <ele>224.60000610352</ele>
        <time>2014-12-29T14:37:03.000Z</time>
      </trkpt>
      <trkpt lat="43.70326" lon="7.08541">
        <ele>224.60000610352</ele>
        <time>2014-12-29T14:37:04.000Z</time>
      </trkpt>
      <trkpt lat="43.70324" lon="7.08556">
        <ele>224.60000610352</ele>
        <time>2014-12-29T14:37:10.000Z</time>
      </trkpt>
      <trkpt lat="43.70324" lon="7.08558">
        <ele>224.19999694824</ele>
        <time>2014-12-29T14:37:11.000Z</time>
      </trkpt>
      <trkpt lat="43.70324" lon="7.0856">
        <ele>223.80000305176</ele>
        <time>2014-12-29T14:37:12.000Z</time>
      </trkpt>
      <trkpt lat="43.70323" lon="7.08561">
        <ele>223.39999389648</ele>
        <time>2014-12-29T14:37:13.000Z</time>
      </trkpt>
      <trkpt lat="43.70323" lon="7.08563">
        <ele>223</ele>
        <time>2014-12-29T14:37:14.000Z</time>
      </trkpt>
      <trkpt lat="43.70323" lon="7.08565">
        <ele>222.60000610352</ele>
        <time>2014-12-29T14:37:15.000Z</time>
      </trkpt>
      <trkpt lat="43.70323" lon="7.08567">
        <ele>222.60000610352</ele>
        <time>2014-12-29T14:37:16.000Z</time>
      </trkpt>
      <trkpt lat="43.70323" lon="7.08569">
        <ele>222.19999694824</ele>
        <time>2014-12-29T14:37:17.000Z</time>
      </trkpt>
      <trkpt lat="43.70323" lon="7.08572">
        <ele>221.80000305176</ele>
        <time>2014-12-29T14:37:18.000Z</time>
      </trkpt>
      <trkpt lat="43.70324" lon="7.08575">
        <ele>221.39999389648</ele>
        <time>2014-12-29T14:37:19.000Z</time>
      </trkpt>
      <trkpt lat="43.70324" lon="7.08578">
        <ele>221</ele>
        <time>2014-12-29T14:37:20.000Z</time>
      </trkpt>
      <trkpt lat="43.70325" lon="7.08582">
        <ele>220.60000610352</ele>
        <time>2014-12-29T14:37:21.000Z</time>
      </trkpt>
      <trkpt lat="43.70326" lon="7.08584">
        <ele>220.60000610352</ele>
        <time>2014-12-29T14:37:22.000Z</time>
      </trkpt>
      <trkpt lat="43.70327" lon="7.08587">
        <ele>220.60000610352</ele>
        <time>2014-12-29T14:37:23.000Z</time>
      </trkpt>
      <trkpt lat="43.7033" lon="7.08601">
        <ele>220.60000610352</ele>
        <time>2014-12-29T14:37:27.000Z</time>
      </trkpt>
      <trkpt lat="43.70337" lon="7.08621">
        <ele>220.60000610352</ele>
        <time>2014-12-29T14:37:33.000Z</time>
      </trkpt>
      <trkpt lat="43.70348" lon="7.0864">
        <ele>220.60000610352</ele>
        <time>2014-12-29T14:37:39.000Z</time>
      </trkpt>
      <trkpt lat="43.70359" lon="7.08663">
        <ele>220.60000610352</ele>
        <time>2014-12-29T14:37:46.000Z</time>
      </trkpt>
      <trkpt lat="43.7037" lon="7.08676">
        <ele>220.60000610352</ele>
        <time>2014-12-29T14:37:51.000Z</time>
      </trkpt>
      <trkpt lat="43.70384" lon="7.08681">
        <ele>220.60000610352</ele>
        <time>2014-12-29T14:37:56.000Z</time>
      </trkpt>
      <trkpt lat="43.70404" lon="7.0868">
        <ele>220.60000610352</ele>
        <time>2014-12-29T14:38:03.000Z</time>
      </trkpt>
      <trkpt lat="43.70419" lon="7.0868">
        <ele>220.60000610352</ele>
        <time>2014-12-29T14:38:09.000Z</time>
      </trkpt>
      <trkpt lat="43.70422" lon="7.0868">
        <ele>220.60000610352</ele>
        <time>2014-12-29T14:38:10.000Z</time>
      </trkpt>
      <trkpt lat="43.70441" lon="7.08679">
        <ele>220.60000610352</ele>
        <time>2014-12-29T14:38:17.000Z</time>
      </trkpt>
      <trkpt lat="43.70453" lon="7.0867">
        <ele>220.60000610352</ele>
        <time>2014-12-29T14:38:23.000Z</time>
      </trkpt>
      <trkpt lat="43.7047" lon="7.08665">
        <ele>221</ele>
        <time>2014-12-29T14:38:29.000Z</time>
      </trkpt>
      <trkpt lat="43.70472" lon="7.08662">
        <ele>221.39999389648</ele>
        <time>2014-12-29T14:38:30.000Z</time>
      </trkpt>
      <trkpt lat="43.70475" lon="7.08659">
        <ele>221.80000305176</ele>
        <time>2014-12-29T14:38:31.000Z</time>
      </trkpt>
      <trkpt lat="43.70478" lon="7.08658">
        <ele>222.19999694824</ele>
        <time>2014-12-29T14:38:32.000Z</time>
      </trkpt>
      <trkpt lat="43.7048" lon="7.08657">
        <ele>222.60000610352</ele>
        <time>2014-12-29T14:38:33.000Z</time>
      </trkpt>
      <trkpt lat="43.70483" lon="7.08655">
        <ele>222.60000610352</ele>
        <time>2014-12-29T14:38:34.000Z</time>
      </trkpt>
      <trkpt lat="43.70503" lon="7.08646">
        <ele>222.60000610352</ele>
        <time>2014-12-29T14:38:41.000Z</time>
      </trkpt>
      <trkpt lat="43.70523" lon="7.08644">
        <ele>222.60000610352</ele>
        <time>2014-12-29T14:38:47.000Z</time>
      </trkpt>
      <trkpt lat="43.70538" lon="7.08642">
        <ele>222.60000610352</ele>
        <time>2014-12-29T14:38:52.000Z</time>
      </trkpt>
      <trkpt lat="43.70557" lon="7.08637">
        <ele>222.60000610352</ele>
        <time>2014-12-29T14:38:59.000Z</time>
      </trkpt>
      <trkpt lat="43.70572" lon="7.08641">
        <ele>222.60000610352</ele>
        <time>2014-12-29T14:39:05.000Z</time>
      </trkpt>
      <trkpt lat="43.70587" lon="7.08653">
        <ele>223</ele>
        <time>2014-12-29T14:39:13.000Z</time>
      </trkpt>
      <trkpt lat="43.70589" lon="7.08654">
        <ele>223.39999389648</ele>
        <time>2014-12-29T14:39:14.000Z</time>
      </trkpt>
      <trkpt lat="43.70592" lon="7.08656">
        <ele>223.80000305176</ele>
        <time>2014-12-29T14:39:15.000Z</time>
      </trkpt>
      <trkpt lat="43.70594" lon="7.08658">
        <ele>224.19999694824</ele>
        <time>2014-12-29T14:39:16.000Z</time>
      </trkpt>
      <trkpt lat="43.70596" lon="7.0866">
        <ele>224.60000610352</ele>
        <time>2014-12-29T14:39:17.000Z</time>
      </trkpt>
      <trkpt lat="43.70598" lon="7.08663">
        <ele>224.60000610352</ele>
        <time>2014-12-29T14:39:19.000Z</time>
      </trkpt>
      <trkpt lat="43.706" lon="7.08665">
        <ele>225.19999694824</ele>
        <time>2014-12-29T14:39:20.000Z</time>
      </trkpt>
      <trkpt lat="43.70601" lon="7.08666">
        <ele>225.60000610352</ele>
        <time>2014-12-29T14:39:21.000Z</time>
      </trkpt>
      <trkpt lat="43.70602" lon="7.08668">
        <ele>226.19999694824</ele>
        <time>2014-12-29T14:39:22.000Z</time>
      </trkpt>
      <trkpt lat="43.70604" lon="7.0867">
        <ele>226.60000610352</ele>
        <time>2014-12-29T14:39:23.000Z</time>
      </trkpt>
      <trkpt lat="43.70607" lon="7.08672">
        <ele>227.19999694824</ele>
        <time>2014-12-29T14:39:24.000Z</time>
      </trkpt>
      <trkpt lat="43.70609" lon="7.08673">
        <ele>227.19999694824</ele>
        <time>2014-12-29T14:39:25.000Z</time>
      </trkpt>
      <trkpt lat="43.70622" lon="7.08688">
        <ele>227.60000610352</ele>
        <time>2014-12-29T14:39:32.000Z</time>
      </trkpt>
      <trkpt lat="43.70624" lon="7.0869">
        <ele>228</ele>
        <time>2014-12-29T14:39:33.000Z</time>
      </trkpt>
      <trkpt lat="43.70626" lon="7.08693">
        <ele>228.39999389648</ele>
        <time>2014-12-29T14:39:34.000Z</time>
      </trkpt>
      <trkpt lat="43.70629" lon="7.08694">
        <ele>228.80000305176</ele>
        <time>2014-12-29T14:39:35.000Z</time>
      </trkpt>
      <trkpt lat="43.70631" lon="7.08696">
        <ele>229.39999389648</ele>
        <time>2014-12-29T14:39:36.000Z</time>
      </trkpt>
      <trkpt lat="43.70637" lon="7.087">
        <ele>229.39999389648</ele>
        <time>2014-12-29T14:39:39.000Z</time>
      </trkpt>
      <trkpt lat="43.70652" lon="7.08716">
        <ele>229.39999389648</ele>
        <time>2014-12-29T14:39:47.000Z</time>
      </trkpt>
      <trkpt lat="43.70668" lon="7.08733">
        <ele>229.39999389648</ele>
        <time>2014-12-29T14:39:55.000Z</time>
      </trkpt>
      <trkpt lat="43.70684" lon="7.08749">
        <ele>229.39999389648</ele>
        <time>2014-12-29T14:40:04.000Z</time>
      </trkpt>
      <trkpt lat="43.7069" lon="7.08753">
        <ele>229.80000305176</ele>
        <time>2014-12-29T14:40:07.000Z</time>
      </trkpt>
      <trkpt lat="43.70692" lon="7.08755">
        <ele>230.19999694824</ele>
        <time>2014-12-29T14:40:08.000Z</time>
      </trkpt>
      <trkpt lat="43.70694" lon="7.08757">
        <ele>230.60000610352</ele>
        <time>2014-12-29T14:40:09.000Z</time>
      </trkpt>
      <trkpt lat="43.70696" lon="7.0876">
        <ele>231</ele>
        <time>2014-12-29T14:40:10.000Z</time>
      </trkpt>
      <trkpt lat="43.70698" lon="7.08762">
        <ele>231.39999389648</ele>
        <time>2014-12-29T14:40:11.000Z</time>
      </trkpt>
      <trkpt lat="43.70717" lon="7.08782">
        <ele>231.39999389648</ele>
        <time>2014-12-29T14:40:19.000Z</time>
      </trkpt>
      <trkpt lat="43.7073" lon="7.08796">
        <ele>231.39999389648</ele>
        <time>2014-12-29T14:40:26.000Z</time>
      </trkpt>
      <trkpt lat="43.70745" lon="7.08811">
        <ele>231.39999389648</ele>
        <time>2014-12-29T14:40:34.000Z</time>
      </trkpt>
      <trkpt lat="43.70762" lon="7.08824">
        <ele>231.39999389648</ele>
        <time>2014-12-29T14:40:42.000Z</time>
      </trkpt>
      <trkpt lat="43.70765" lon="7.08836">
        <ele>231.39999389648</ele>
        <time>2014-12-29T14:40:47.000Z</time>
      </trkpt>
      <trkpt lat="43.70766" lon="7.08836">
        <ele>231.39999389648</ele>
        <time>2014-12-29T14:40:48.000Z</time>
      </trkpt>
      <trkpt lat="43.70775" lon="7.08831">
        <ele>231.39999389648</ele>
        <time>2014-12-29T14:40:54.000Z</time>
      </trkpt>
      <trkpt lat="43.70783" lon="7.08829">
        <ele>231.39999389648</ele>
        <time>2014-12-29T14:41:02.000Z</time>
      </trkpt>
      <trkpt lat="43.70787" lon="7.08829">
        <ele>231.80000305176</ele>
        <time>2014-12-29T14:41:03.000Z</time>
      </trkpt>
      <trkpt lat="43.7079" lon="7.0883">
        <ele>232.19999694824</ele>
        <time>2014-12-29T14:41:04.000Z</time>
      </trkpt>
      <trkpt lat="43.70793" lon="7.0883">
        <ele>232.80000305176</ele>
        <time>2014-12-29T14:41:05.000Z</time>
      </trkpt>
      <trkpt lat="43.70796" lon="7.08829">
        <ele>233.19999694824</ele>
        <time>2014-12-29T14:41:06.000Z</time>
      </trkpt>
      <trkpt lat="43.70799" lon="7.08828">
        <ele>233.60000610352</ele>
        <time>2014-12-29T14:41:07.000Z</time>
      </trkpt>
      <trkpt lat="43.70805" lon="7.08829">
        <ele>233.60000610352</ele>
        <time>2014-12-29T14:41:09.000Z</time>
      </trkpt>
      <trkpt lat="43.7082" lon="7.08831">
        <ele>233.60000610352</ele>
        <time>2014-12-29T14:41:15.000Z</time>
      </trkpt>
      <trkpt lat="43.70839" lon="7.08843">
        <ele>234</ele>
        <time>2014-12-29T14:41:24.000Z</time>
      </trkpt>
      <trkpt lat="43.70839" lon="7.08848">
        <ele>234.39999389648</ele>
        <time>2014-12-29T14:41:25.000Z</time>
      </trkpt>
      <trkpt lat="43.70839" lon="7.0885">
        <ele>234.80000305176</ele>
        <time>2014-12-29T14:41:26.000Z</time>
      </trkpt>
      <trkpt lat="43.70838" lon="7.08853">
        <ele>235.19999694824</ele>
        <time>2014-12-29T14:41:27.000Z</time>
      </trkpt>
      <trkpt lat="43.70838" lon="7.08856">
        <ele>235.60000610352</ele>
        <time>2014-12-29T14:41:28.000Z</time>
      </trkpt>
      <trkpt lat="43.70837" lon="7.08877">
        <ele>235.60000610352</ele>
        <time>2014-12-29T14:41:36.000Z</time>
      </trkpt>
      <trkpt lat="43.70841" lon="7.08893">
        <ele>235.60000610352</ele>
        <time>2014-12-29T14:41:42.000Z</time>
      </trkpt>
      <trkpt lat="43.70842" lon="7.08895">
        <ele>235.60000610352</ele>
        <time>2014-12-29T14:41:43.000Z</time>
      </trkpt>
      <trkpt lat="43.70848" lon="7.08909">
        <ele>235.60000610352</ele>
        <time>2014-12-29T14:41:49.000Z</time>
      </trkpt>
      <trkpt lat="43.70849" lon="7.08911">
        <ele>236</ele>
        <time>2014-12-29T14:41:50.000Z</time>
      </trkpt>
      <trkpt lat="43.70851" lon="7.08912">
        <ele>236.39999389648</ele>
        <time>2014-12-29T14:41:51.000Z</time>
      </trkpt>
      <trkpt lat="43.70852" lon="7.08914">
        <ele>236.80000305176</ele>
        <time>2014-12-29T14:41:52.000Z</time>
      </trkpt>
      <trkpt lat="43.70854" lon="7.08915">
        <ele>237.39999389648</ele>
        <time>2014-12-29T14:41:53.000Z</time>
      </trkpt>
      <trkpt lat="43.70856" lon="7.08917">
        <ele>237.80000305176</ele>
        <time>2014-12-29T14:41:54.000Z</time>
      </trkpt>
      <trkpt lat="43.7086" lon="7.08924">
        <ele>237.80000305176</ele>
        <time>2014-12-29T14:41:58.000Z</time>
      </trkpt>
      <trkpt lat="43.70861" lon="7.08925">
        <ele>238.19999694824</ele>
        <time>2014-12-29T14:41:59.000Z</time>
      </trkpt>
      <trkpt lat="43.70863" lon="7.08927">
        <ele>238.60000610352</ele>
        <time>2014-12-29T14:42:00.000Z</time>
      </trkpt>
      <trkpt lat="43.70864" lon="7.08928">
        <ele>239</ele>
        <time>2014-12-29T14:42:01.000Z</time>
      </trkpt>
      <trkpt lat="43.70865" lon="7.08929">
        <ele>239.39999389648</ele>
        <time>2014-12-29T14:42:02.000Z</time>
      </trkpt>
      <trkpt lat="43.70867" lon="7.08932">
        <ele>240</ele>
        <time>2014-12-29T14:42:03.000Z</time>
      </trkpt>
      <trkpt lat="43.7087" lon="7.08933">
        <ele>240</ele>
        <time>2014-12-29T14:42:04.000Z</time>
      </trkpt>
      <trkpt lat="43.70878" lon="7.08942">
        <ele>240.39999389648</ele>
        <time>2014-12-29T14:42:08.000Z</time>
      </trkpt>
      <trkpt lat="43.70879" lon="7.08944">
        <ele>240.80000305176</ele>
        <time>2014-12-29T14:42:09.000Z</time>
      </trkpt>
      <trkpt lat="43.70881" lon="7.08946">
        <ele>241.39999389648</ele>
        <time>2014-12-29T14:42:10.000Z</time>
      </trkpt>
      <trkpt lat="43.70882" lon="7.08947">
        <ele>241.80000305176</ele>
        <time>2014-12-29T14:42:11.000Z</time>
      </trkpt>
      <trkpt lat="43.70883" lon="7.08948">
        <ele>242.19999694824</ele>
        <time>2014-12-29T14:42:12.000Z</time>
      </trkpt>
      <trkpt lat="43.70887" lon="7.08952">
        <ele>242.60000610352</ele>
        <time>2014-12-29T14:42:15.000Z</time>
      </trkpt>
      <trkpt lat="43.70888" lon="7.08952">
        <ele>243</ele>
        <time>2014-12-29T14:42:16.000Z</time>
      </trkpt>
      <trkpt lat="43.7089" lon="7.08953">
        <ele>243.39999389648</ele>
        <time>2014-12-29T14:42:17.000Z</time>
      </trkpt>
      <trkpt lat="43.7089" lon="7.08954">
        <ele>243.80000305176</ele>
        <time>2014-12-29T14:42:18.000Z</time>
      </trkpt>
      <trkpt lat="43.70891" lon="7.0896">
        <ele>244.19999694824</ele>
        <time>2014-12-29T14:42:19.000Z</time>
      </trkpt>
      <trkpt lat="43.70892" lon="7.08984">
        <ele>244.19999694824</ele>
        <time>2014-12-29T14:43:00.000Z</time>
      </trkpt>
      <trkpt lat="43.70888" lon="7.08987">
        <ele>244.19999694824</ele>
        <time>2014-12-29T14:43:02.000Z</time>
      </trkpt>
      <trkpt lat="43.70876" lon="7.09011">
        <ele>244.19999694824</ele>
        <time>2014-12-29T14:43:09.000Z</time>
      </trkpt>
      <trkpt lat="43.70868" lon="7.0903">
        <ele>244.19999694824</ele>
        <time>2014-12-29T14:43:15.000Z</time>
      </trkpt>
      <trkpt lat="43.70863" lon="7.09045">
        <ele>244.19999694824</ele>
        <time>2014-12-29T14:43:20.000Z</time>
      </trkpt>
      <trkpt lat="43.70851" lon="7.0906">
        <ele>244.19999694824</ele>
        <time>2014-12-29T14:43:27.000Z</time>
      </trkpt>
      <trkpt lat="43.70843" lon="7.09064">
        <ele>244.19999694824</ele>
        <time>2014-12-29T14:43:32.000Z</time>
      </trkpt>
      <trkpt lat="43.70837" lon="7.09067">
        <ele>244.19999694824</ele>
        <time>2014-12-29T14:43:35.000Z</time>
      </trkpt>
      <trkpt lat="43.70831" lon="7.09068">
        <ele>244.19999694824</ele>
        <time>2014-12-29T14:43:38.000Z</time>
      </trkpt>
      <trkpt lat="43.70817" lon="7.09069">
        <ele>244.19999694824</ele>
        <time>2014-12-29T14:43:43.000Z</time>
      </trkpt>
      <trkpt lat="43.70807" lon="7.09068">
        <ele>243.80000305176</ele>
        <time>2014-12-29T14:43:47.000Z</time>
      </trkpt>
      <trkpt lat="43.70806" lon="7.09068">
        <ele>243.39999389648</ele>
        <time>2014-12-29T14:43:48.000Z</time>
      </trkpt>
      <trkpt lat="43.70804" lon="7.09069">
        <ele>243</ele>
        <time>2014-12-29T14:43:49.000Z</time>
      </trkpt>
      <trkpt lat="43.70802" lon="7.09068">
        <ele>242.60000610352</ele>
        <time>2014-12-29T14:43:50.000Z</time>
      </trkpt>
      <trkpt lat="43.708" lon="7.09068">
        <ele>242.19999694824</ele>
        <time>2014-12-29T14:43:51.000Z</time>
      </trkpt>
      <trkpt lat="43.70792" lon="7.09067">
        <ele>242.19999694824</ele>
        <time>2014-12-29T14:43:54.000Z</time>
      </trkpt>
      <trkpt lat="43.70778" lon="7.09066">
        <ele>242.19999694824</ele>
        <time>2014-12-29T14:44:01.000Z</time>
      </trkpt>
      <trkpt lat="43.70756" lon="7.09067">
        <ele>242.19999694824</ele>
        <time>2014-12-29T14:44:07.000Z</time>
      </trkpt>
      <trkpt lat="43.70738" lon="7.09065">
        <ele>242.19999694824</ele>
        <time>2014-12-29T14:44:13.000Z</time>
      </trkpt>
      <trkpt lat="43.70723" lon="7.09061">
        <ele>242.19999694824</ele>
        <time>2014-12-29T14:44:18.000Z</time>
      </trkpt>
      <trkpt lat="43.707" lon="7.09057">
        <ele>242.19999694824</ele>
        <time>2014-12-29T14:44:25.000Z</time>
      </trkpt>
      <trkpt lat="43.70684" lon="7.09053">
        <ele>242.19999694824</ele>
        <time>2014-12-29T14:44:31.000Z</time>
      </trkpt>
      <trkpt lat="43.70681" lon="7.09052">
        <ele>241.80000305176</ele>
        <time>2014-12-29T14:44:32.000Z</time>
      </trkpt>
      <trkpt lat="43.70679" lon="7.0905">
        <ele>241.39999389648</ele>
        <time>2014-12-29T14:44:33.000Z</time>
      </trkpt>
      <trkpt lat="43.70674" lon="7.09049">
        <ele>241</ele>
        <time>2014-12-29T14:44:34.000Z</time>
      </trkpt>
      <trkpt lat="43.7067" lon="7.09047">
        <ele>240.39999389648</ele>
        <time>2014-12-29T14:44:35.000Z</time>
      </trkpt>
      <trkpt lat="43.70667" lon="7.09045">
        <ele>240</ele>
        <time>2014-12-29T14:44:36.000Z</time>
      </trkpt>
      <trkpt lat="43.70664" lon="7.09044">
        <ele>240</ele>
        <time>2014-12-29T14:44:37.000Z</time>
      </trkpt>
      <trkpt lat="43.70648" lon="7.09037">
        <ele>240</ele>
        <time>2014-12-29T14:44:44.000Z</time>
      </trkpt>
      <trkpt lat="43.70628" lon="7.09034">
        <ele>240</ele>
        <time>2014-12-29T14:44:51.000Z</time>
      </trkpt>
      <trkpt lat="43.70626" lon="7.09034">
        <ele>240</ele>
        <time>2014-12-29T14:44:52.000Z</time>
      </trkpt>
      <trkpt lat="43.70619" lon="7.09033">
        <ele>239.60000610352</ele>
        <time>2014-12-29T14:44:55.000Z</time>
      </trkpt>
      <trkpt lat="43.70616" lon="7.09033">
        <ele>239</ele>
        <time>2014-12-29T14:44:56.000Z</time>
      </trkpt>
      <trkpt lat="43.70612" lon="7.09034">
        <ele>238.60000610352</ele>
        <time>2014-12-29T14:44:57.000Z</time>
      </trkpt>
      <trkpt lat="43.70609" lon="7.09034">
        <ele>238.19999694824</ele>
        <time>2014-12-29T14:44:58.000Z</time>
      </trkpt>
      <trkpt lat="43.70607" lon="7.09035">
        <ele>237.60000610352</ele>
        <time>2014-12-29T14:44:59.000Z</time>
      </trkpt>
      <trkpt lat="43.70594" lon="7.09036">
        <ele>237.60000610352</ele>
        <time>2014-12-29T14:45:03.000Z</time>
      </trkpt>
      <trkpt lat="43.70577" lon="7.09045">
        <ele>237.60000610352</ele>
        <time>2014-12-29T14:45:10.000Z</time>
      </trkpt>
      <trkpt lat="43.70558" lon="7.09054">
        <ele>237.60000610352</ele>
        <time>2014-12-29T14:45:15.000Z</time>
      </trkpt>
      <trkpt lat="43.70543" lon="7.0908">
        <ele>237.60000610352</ele>
        <time>2014-12-29T14:45:22.000Z</time>
      </trkpt>
      <trkpt lat="43.70541" lon="7.09088">
        <ele>237.19999694824</ele>
        <time>2014-12-29T14:45:24.000Z</time>
      </trkpt>
      <trkpt lat="43.70539" lon="7.09092">
        <ele>236.80000305176</ele>
        <time>2014-12-29T14:45:25.000Z</time>
      </trkpt>
      <trkpt lat="43.70537" lon="7.09097">
        <ele>236.39999389648</ele>
        <time>2014-12-29T14:45:26.000Z</time>
      </trkpt>
      <trkpt lat="43.70537" lon="7.091">
        <ele>236</ele>
        <time>2014-12-29T14:45:27.000Z</time>
      </trkpt>
      <trkpt lat="43.70536" lon="7.09104">
        <ele>235.60000610352</ele>
        <time>2014-12-29T14:45:28.000Z</time>
      </trkpt>
      <trkpt lat="43.70534" lon="7.09114">
        <ele>235.60000610352</ele>
        <time>2014-12-29T14:45:31.000Z</time>
      </trkpt>
      <trkpt lat="43.70532" lon="7.09133">
        <ele>235.60000610352</ele>
        <time>2014-12-29T14:45:36.000Z</time>
      </trkpt>
      <trkpt lat="43.7053" lon="7.09141">
        <ele>235.19999694824</ele>
        <time>2014-12-29T14:45:40.000Z</time>
      </trkpt>
      <trkpt lat="43.70539" lon="7.09152">
        <ele>235.80000305176</ele>
        <time>2014-12-29T14:45:52.000Z</time>
      </trkpt>
      <trkpt lat="43.70547" lon="7.0917">
        <ele>235.80000305176</ele>
        <time>2014-12-29T14:45:58.000Z</time>
      </trkpt>
      <trkpt lat="43.70553" lon="7.0919">
        <ele>236.19999694824</ele>
        <time>2014-12-29T14:46:03.000Z</time>
      </trkpt>
      <trkpt lat="43.70554" lon="7.09193">
        <ele>236.60000610352</ele>
        <time>2014-12-29T14:46:04.000Z</time>
      </trkpt>
      <trkpt lat="43.70554" lon="7.09195">
        <ele>237</ele>
        <time>2014-12-29T14:46:05.000Z</time>
      </trkpt>
      <trkpt lat="43.70555" lon="7.09197">
        <ele>237.39999389648</ele>
        <time>2014-12-29T14:46:06.000Z</time>
      </trkpt>
      <trkpt lat="43.70557" lon="7.09199">
        <ele>238</ele>
        <time>2014-12-29T14:46:07.000Z</time>
      </trkpt>
      <trkpt lat="43.70562" lon="7.09216">
        <ele>238</ele>
        <time>2014-12-29T14:46:14.000Z</time>
      </trkpt>
      <trkpt lat="43.70562" lon="7.09221">
        <ele>238.39999389648</ele>
        <time>2014-12-29T14:46:16.000Z</time>
      </trkpt>
      <trkpt lat="43.70562" lon="7.09224">
        <ele>238.80000305176</ele>
        <time>2014-12-29T14:46:17.000Z</time>
      </trkpt>
      <trkpt lat="43.70562" lon="7.09226">
        <ele>239.19999694824</ele>
        <time>2014-12-29T14:46:18.000Z</time>
      </trkpt>
      <trkpt lat="43.70563" lon="7.09229">
        <ele>239.60000610352</ele>
        <time>2014-12-29T14:46:19.000Z</time>
      </trkpt>
      <trkpt lat="43.70563" lon="7.09231">
        <ele>240</ele>
        <time>2014-12-29T14:46:20.000Z</time>
      </trkpt>
      <trkpt lat="43.70566" lon="7.09237">
        <ele>240</ele>
        <time>2014-12-29T14:46:22.000Z</time>
      </trkpt>
      <trkpt lat="43.7057" lon="7.09241">
        <ele>240</ele>
        <time>2014-12-29T14:46:25.000Z</time>
      </trkpt>
      <trkpt lat="43.70573" lon="7.09244">
        <ele>240.39999389648</ele>
        <time>2014-12-29T14:46:27.000Z</time>
      </trkpt>
      <trkpt lat="43.70574" lon="7.09245">
        <ele>240.80000305176</ele>
        <time>2014-12-29T14:46:28.000Z</time>
      </trkpt>
      <trkpt lat="43.70575" lon="7.09247">
        <ele>241.19999694824</ele>
        <time>2014-12-29T14:46:29.000Z</time>
      </trkpt>
      <trkpt lat="43.70576" lon="7.09249">
        <ele>241.60000610352</ele>
        <time>2014-12-29T14:46:30.000Z</time>
      </trkpt>
      <trkpt lat="43.70578" lon="7.09251">
        <ele>242.19999694824</ele>
        <time>2014-12-29T14:46:31.000Z</time>
      </trkpt>
      <trkpt lat="43.70582" lon="7.0926">
        <ele>242.60000610352</ele>
        <time>2014-12-29T14:46:35.000Z</time>
      </trkpt>
      <trkpt lat="43.70583" lon="7.09263">
        <ele>243</ele>
        <time>2014-12-29T14:46:36.000Z</time>
      </trkpt>
      <trkpt lat="43.70584" lon="7.09264">
        <ele>243.60000610352</ele>
        <time>2014-12-29T14:46:37.000Z</time>
      </trkpt>
      <trkpt lat="43.70586" lon="7.09266">
        <ele>244</ele>
        <time>2014-12-29T14:46:38.000Z</time>
      </trkpt>
      <trkpt lat="43.70588" lon="7.0927">
        <ele>244.39999389648</ele>
        <time>2014-12-29T14:46:40.000Z</time>
      </trkpt>
      <trkpt lat="43.70592" lon="7.09273">
        <ele>244.39999389648</ele>
        <time>2014-12-29T14:46:43.000Z</time>
      </trkpt>
      <trkpt lat="43.70594" lon="7.09274">
        <ele>244.80000305176</ele>
        <time>2014-12-29T14:46:44.000Z</time>
      </trkpt>
      <trkpt lat="43.70595" lon="7.09275">
        <ele>245.39999389648</ele>
        <time>2014-12-29T14:46:45.000Z</time>
      </trkpt>
      <trkpt lat="43.70597" lon="7.09276">
        <ele>245.80000305176</ele>
        <time>2014-12-29T14:46:46.000Z</time>
      </trkpt>
      <trkpt lat="43.70597" lon="7.09278">
        <ele>246.19999694824</ele>
        <time>2014-12-29T14:46:47.000Z</time>
      </trkpt>
      <trkpt lat="43.70599" lon="7.0928">
        <ele>246.60000610352</ele>
        <time>2014-12-29T14:46:48.000Z</time>
      </trkpt>
      <trkpt lat="43.70601" lon="7.09283">
        <ele>247</ele>
        <time>2014-12-29T14:46:50.000Z</time>
      </trkpt>
      <trkpt lat="43.70602" lon="7.09283">
        <ele>247.60000610352</ele>
        <time>2014-12-29T14:46:51.000Z</time>
      </trkpt>
      <trkpt lat="43.70603" lon="7.09285">
        <ele>248</ele>
        <time>2014-12-29T14:46:52.000Z</time>
      </trkpt>
      <trkpt lat="43.70605" lon="7.09286">
        <ele>248.39999389648</ele>
        <time>2014-12-29T14:46:53.000Z</time>
      </trkpt>
      <trkpt lat="43.70606" lon="7.09287">
        <ele>248.80000305176</ele>
        <time>2014-12-29T14:46:54.000Z</time>
      </trkpt>
      <trkpt lat="43.70612" lon="7.09292">
        <ele>249.19999694824</ele>
        <time>2014-12-29T14:46:58.000Z</time>
      </trkpt>
      <trkpt lat="43.70615" lon="7.09293">
        <ele>250.19999694824</ele>
        <time>2014-12-29T14:47:00.000Z</time>
      </trkpt>
      <trkpt lat="43.7062" lon="7.09296">
        <ele>250.80000305176</ele>
        <time>2014-12-29T14:47:02.000Z</time>
      </trkpt>
      <trkpt lat="43.70622" lon="7.09296">
        <ele>251.19999694824</ele>
        <time>2014-12-29T14:47:03.000Z</time>
      </trkpt>
      <trkpt lat="43.70627" lon="7.09299">
        <ele>251.60000610352</ele>
        <time>2014-12-29T14:47:06.000Z</time>
      </trkpt>
      <trkpt lat="43.70628" lon="7.093">
        <ele>252</ele>
        <time>2014-12-29T14:47:07.000Z</time>
      </trkpt>
      <trkpt lat="43.7063" lon="7.093">
        <ele>252.60000610352</ele>
        <time>2014-12-29T14:47:08.000Z</time>
      </trkpt>
      <trkpt lat="43.70632" lon="7.093">
        <ele>253</ele>
        <time>2014-12-29T14:47:09.000Z</time>
      </trkpt>
      <trkpt lat="43.70633" lon="7.093">
        <ele>253.39999389648</ele>
        <time>2014-12-29T14:47:10.000Z</time>
      </trkpt>
      <trkpt lat="43.7064" lon="7.09296">
        <ele>253.39999389648</ele>
        <time>2014-12-29T14:47:14.000Z</time>
      </trkpt>
      <trkpt lat="43.70643" lon="7.09292">
        <ele>253.80000305176</ele>
        <time>2014-12-29T14:47:16.000Z</time>
      </trkpt>
      <trkpt lat="43.70644" lon="7.0929">
        <ele>254.19999694824</ele>
        <time>2014-12-29T14:47:17.000Z</time>
      </trkpt>
      <trkpt lat="43.70646" lon="7.09288">
        <ele>254.60000610352</ele>
        <time>2014-12-29T14:47:18.000Z</time>
      </trkpt>
      <trkpt lat="43.70648" lon="7.09286">
        <ele>255</ele>
        <time>2014-12-29T14:47:19.000Z</time>
      </trkpt>
      <trkpt lat="43.70649" lon="7.09285">
        <ele>255.39999389648</ele>
        <time>2014-12-29T14:47:20.000Z</time>
      </trkpt>
      <trkpt lat="43.70654" lon="7.0928">
        <ele>255.39999389648</ele>
        <time>2014-12-29T14:47:23.000Z</time>
      </trkpt>
      <trkpt lat="43.70666" lon="7.09267">
        <ele>255.39999389648</ele>
        <time>2014-12-29T14:47:29.000Z</time>
      </trkpt>
      <trkpt lat="43.7068" lon="7.09257">
        <ele>255.39999389648</ele>
        <time>2014-12-29T14:47:35.000Z</time>
      </trkpt>
      <trkpt lat="43.70696" lon="7.09248">
        <ele>255.39999389648</ele>
        <time>2014-12-29T14:47:41.000Z</time>
      </trkpt>
      <trkpt lat="43.70707" lon="7.09239">
        <ele>255.39999389648</ele>
        <time>2014-12-29T14:47:47.000Z</time>
      </trkpt>
      <trkpt lat="43.70722" lon="7.09222">
        <ele>255.39999389648</ele>
        <time>2014-12-29T14:47:54.000Z</time>
      </trkpt>
      <trkpt lat="43.70724" lon="7.0922">
        <ele>255</ele>
        <time>2014-12-29T14:47:55.000Z</time>
      </trkpt>
      <trkpt lat="43.70726" lon="7.09218">
        <ele>254.60000610352</ele>
        <time>2014-12-29T14:47:56.000Z</time>
      </trkpt>
      <trkpt lat="43.70729" lon="7.09217">
        <ele>254.19999694824</ele>
        <time>2014-12-29T14:47:57.000Z</time>
      </trkpt>
      <trkpt lat="43.70732" lon="7.09216">
        <ele>253.80000305176</ele>
        <time>2014-12-29T14:47:58.000Z</time>
      </trkpt>
      <trkpt lat="43.70735" lon="7.09214">
        <ele>253.39999389648</ele>
        <time>2014-12-29T14:47:59.000Z</time>
      </trkpt>
      <trkpt lat="43.70737" lon="7.09213">
        <ele>253.39999389648</ele>
        <time>2014-12-29T14:48:00.000Z</time>
      </trkpt>
      <trkpt lat="43.70746" lon="7.09211">
        <ele>253.39999389648</ele>
        <time>2014-12-29T14:48:03.000Z</time>
      </trkpt>
      <trkpt lat="43.70752" lon="7.0921">
        <ele>253.39999389648</ele>
        <time>2014-12-29T14:48:05.000Z</time>
      </trkpt>
      <trkpt lat="43.70764" lon="7.0921">
        <ele>253.39999389648</ele>
        <time>2014-12-29T14:48:10.000Z</time>
      </trkpt>
      <trkpt lat="43.70779" lon="7.09206">
        <ele>253.39999389648</ele>
        <time>2014-12-29T14:48:17.000Z</time>
      </trkpt>
      <trkpt lat="43.70789" lon="7.09188">
        <ele>253</ele>
        <time>2014-12-29T14:48:23.000Z</time>
      </trkpt>
      <trkpt lat="43.70791" lon="7.09186">
        <ele>252.60000610352</ele>
        <time>2014-12-29T14:48:24.000Z</time>
      </trkpt>
      <trkpt lat="43.70793" lon="7.09184">
        <ele>252.19999694824</ele>
        <time>2014-12-29T14:48:25.000Z</time>
      </trkpt>
      <trkpt lat="43.70795" lon="7.09183">
        <ele>251.80000305176</ele>
        <time>2014-12-29T14:48:26.000Z</time>
      </trkpt>
      <trkpt lat="43.70797" lon="7.09181">
        <ele>251.39999389648</ele>
        <time>2014-12-29T14:48:27.000Z</time>
      </trkpt>
      <trkpt lat="43.70805" lon="7.09175">
        <ele>251.39999389648</ele>
        <time>2014-12-29T14:48:31.000Z</time>
      </trkpt>
      <trkpt lat="43.70816" lon="7.09156">
        <ele>251.39999389648</ele>
        <time>2014-12-29T14:48:38.000Z</time>
      </trkpt>
      <trkpt lat="43.70822" lon="7.09148">
        <ele>251</ele>
        <time>2014-12-29T14:48:41.000Z</time>
      </trkpt>
      <trkpt lat="43.70824" lon="7.09146">
        <ele>250.39999389648</ele>
        <time>2014-12-29T14:48:42.000Z</time>
      </trkpt>
      <trkpt lat="43.70827" lon="7.09144">
        <ele>250</ele>
        <time>2014-12-29T14:48:43.000Z</time>
      </trkpt>
      <trkpt lat="43.70829" lon="7.09143">
        <ele>249.60000610352</ele>
        <time>2014-12-29T14:48:44.000Z</time>
      </trkpt>
      <trkpt lat="43.70832" lon="7.09142">
        <ele>249.19999694824</ele>
        <time>2014-12-29T14:48:45.000Z</time>
      </trkpt>
      <trkpt lat="43.70845" lon="7.09137">
        <ele>249.19999694824</ele>
        <time>2014-12-29T14:48:50.000Z</time>
      </trkpt>
      <trkpt lat="43.70863" lon="7.09131">
        <ele>249.19999694824</ele>
        <time>2014-12-29T14:48:57.000Z</time>
      </trkpt>
      <trkpt lat="43.70885" lon="7.09127">
        <ele>249.19999694824</ele>
        <time>2014-12-29T14:49:05.000Z</time>
      </trkpt>
      <trkpt lat="43.70901" lon="7.09118">
        <ele>249.19999694824</ele>
        <time>2014-12-29T14:49:11.000Z</time>
      </trkpt>
      <trkpt lat="43.70919" lon="7.0911">
        <ele>249.60000610352</ele>
        <time>2014-12-29T14:49:18.000Z</time>
      </trkpt>
      <trkpt lat="43.70922" lon="7.09109">
        <ele>250</ele>
        <time>2014-12-29T14:49:19.000Z</time>
      </trkpt>
      <trkpt lat="43.70924" lon="7.09109">
        <ele>250.39999389648</ele>
        <time>2014-12-29T14:49:20.000Z</time>
      </trkpt>
      <trkpt lat="43.70927" lon="7.09108">
        <ele>250.80000305176</ele>
        <time>2014-12-29T14:49:21.000Z</time>
      </trkpt>
      <trkpt lat="43.7093" lon="7.09108">
        <ele>251.19999694824</ele>
        <time>2014-12-29T14:49:22.000Z</time>
      </trkpt>
      <trkpt lat="43.70938" lon="7.09106">
        <ele>251.19999694824</ele>
        <time>2014-12-29T14:49:25.000Z</time>
      </trkpt>
      <trkpt lat="43.70952" lon="7.09101">
        <ele>251.19999694824</ele>
        <time>2014-12-29T14:49:31.000Z</time>
      </trkpt>
      <trkpt lat="43.70963" lon="7.09085">
        <ele>251.19999694824</ele>
        <time>2014-12-29T14:49:37.000Z</time>
      </trkpt>
      <trkpt lat="43.70978" lon="7.09067">
        <ele>251.19999694824</ele>
        <time>2014-12-29T14:49:44.000Z</time>
      </trkpt>
      <trkpt lat="43.7099" lon="7.09059">
        <ele>251.19999694824</ele>
        <time>2014-12-29T14:49:49.000Z</time>
      </trkpt>
      <trkpt lat="43.71004" lon="7.09056">
        <ele>250.80000305176</ele>
        <time>2014-12-29T14:49:54.000Z</time>
      </trkpt>
      <trkpt lat="43.71007" lon="7.09054">
        <ele>250.39999389648</ele>
        <time>2014-12-29T14:49:55.000Z</time>
      </trkpt>
      <trkpt lat="43.7101" lon="7.09053">
        <ele>250</ele>
        <time>2014-12-29T14:49:56.000Z</time>
      </trkpt>
      <trkpt lat="43.71012" lon="7.09051">
        <ele>249.60000610352</ele>
        <time>2014-12-29T14:49:57.000Z</time>
      </trkpt>
      <trkpt lat="43.71014" lon="7.09049">
        <ele>249.19999694824</ele>
        <time>2014-12-29T14:49:58.000Z</time>
      </trkpt>
      <trkpt lat="43.71018" lon="7.09045">
        <ele>249.19999694824</ele>
        <time>2014-12-29T14:50:00.000Z</time>
      </trkpt>
      <trkpt lat="43.7103" lon="7.09023">
        <ele>249.19999694824</ele>
        <time>2014-12-29T14:50:07.000Z</time>
      </trkpt>
      <trkpt lat="43.71042" lon="7.09001">
        <ele>249.19999694824</ele>
        <time>2014-12-29T14:50:14.000Z</time>
      </trkpt>
      <trkpt lat="43.71045" lon="7.08994">
        <ele>248.80000305176</ele>
        <time>2014-12-29T14:50:16.000Z</time>
      </trkpt>
      <trkpt lat="43.71047" lon="7.08992">
        <ele>248.39999389648</ele>
        <time>2014-12-29T14:50:17.000Z</time>
      </trkpt>
      <trkpt lat="43.71048" lon="7.08988">
        <ele>248</ele>
        <time>2014-12-29T14:50:18.000Z</time>
      </trkpt>
      <trkpt lat="43.7105" lon="7.08984">
        <ele>247.60000610352</ele>
        <time>2014-12-29T14:50:19.000Z</time>
      </trkpt>
      <trkpt lat="43.71052" lon="7.08981">
        <ele>247.19999694824</ele>
        <time>2014-12-29T14:50:20.000Z</time>
      </trkpt>
      <trkpt lat="43.71061" lon="7.0896">
        <ele>247.19999694824</ele>
        <time>2014-12-29T14:50:27.000Z</time>
      </trkpt>
      <trkpt lat="43.71075" lon="7.08944">
        <ele>246.80000305176</ele>
        <time>2014-12-29T14:50:34.000Z</time>
      </trkpt>
      <trkpt lat="43.71077" lon="7.08943">
        <ele>246.19999694824</ele>
        <time>2014-12-29T14:50:35.000Z</time>
      </trkpt>
      <trkpt lat="43.7108" lon="7.08942">
        <ele>245.80000305176</ele>
        <time>2014-12-29T14:50:36.000Z</time>
      </trkpt>
      <trkpt lat="43.71083" lon="7.08942">
        <ele>245.39999389648</ele>
        <time>2014-12-29T14:50:37.000Z</time>
      </trkpt>
      <trkpt lat="43.71086" lon="7.08942">
        <ele>245</ele>
        <time>2014-12-29T14:50:38.000Z</time>
      </trkpt>
      <trkpt lat="43.71088" lon="7.08941">
        <ele>245</ele>
        <time>2014-12-29T14:50:39.000Z</time>
      </trkpt>
      <trkpt lat="43.71106" lon="7.08939">
        <ele>245</ele>
        <time>2014-12-29T14:50:45.000Z</time>
      </trkpt>
      <trkpt lat="43.71124" lon="7.08935">
        <ele>245</ele>
        <time>2014-12-29T14:50:52.000Z</time>
      </trkpt>
      <trkpt lat="43.71143" lon="7.08928">
        <ele>245</ele>
        <time>2014-12-29T14:51:00.000Z</time>
      </trkpt>
      <trkpt lat="43.71152" lon="7.08924">
        <ele>245</ele>
        <time>2014-12-29T14:51:04.000Z</time>
      </trkpt>
      <trkpt lat="43.71159" lon="7.08924">
        <ele>245</ele>
        <time>2014-12-29T14:51:07.000Z</time>
      </trkpt>
      <trkpt lat="43.71177" lon="7.08917">
        <ele>245</ele>
        <time>2014-12-29T14:51:15.000Z</time>
      </trkpt>
      <trkpt lat="43.7118" lon="7.08918">
        <ele>245</ele>
        <time>2014-12-29T14:51:16.000Z</time>
      </trkpt>
      <trkpt lat="43.71189" lon="7.08916">
        <ele>245</ele>
        <time>2014-12-29T14:51:19.000Z</time>
      </trkpt>
      <trkpt lat="43.71207" lon="7.08904">
        <ele>245</ele>
        <time>2014-12-29T14:51:27.000Z</time>
      </trkpt>
      <trkpt lat="43.71223" lon="7.08898">
        <ele>245</ele>
        <time>2014-12-29T14:51:34.000Z</time>
      </trkpt>
      <trkpt lat="43.71232" lon="7.08893">
        <ele>244.60000610352</ele>
        <time>2014-12-29T14:51:39.000Z</time>
      </trkpt>
      <trkpt lat="43.71234" lon="7.0889">
        <ele>244.19999694824</ele>
        <time>2014-12-29T14:51:40.000Z</time>
      </trkpt>
      <trkpt lat="43.71235" lon="7.08888">
        <ele>243.80000305176</ele>
        <time>2014-12-29T14:51:41.000Z</time>
      </trkpt>
      <trkpt lat="43.71238" lon="7.08887">
        <ele>243.39999389648</ele>
        <time>2014-12-29T14:51:42.000Z</time>
      </trkpt>
      <trkpt lat="43.7124" lon="7.08883">
        <ele>243</ele>
        <time>2014-12-29T14:51:43.000Z</time>
      </trkpt>
      <trkpt lat="43.71252" lon="7.08881">
        <ele>243</ele>
        <time>2014-12-29T14:51:48.000Z</time>
      </trkpt>
      <trkpt lat="43.71267" lon="7.08883">
        <ele>243</ele>
        <time>2014-12-29T14:51:54.000Z</time>
      </trkpt>
      <trkpt lat="43.71272" lon="7.08884">
        <ele>243</ele>
        <time>2014-12-29T14:51:56.000Z</time>
      </trkpt>
      <trkpt lat="43.71277" lon="7.08881">
        <ele>243</ele>
        <time>2014-12-29T14:51:58.000Z</time>
      </trkpt>
      <trkpt lat="43.71283" lon="7.0888">
        <ele>242.60000610352</ele>
        <time>2014-12-29T14:52:00.000Z</time>
      </trkpt>
      <trkpt lat="43.71286" lon="7.0888">
        <ele>242.19999694824</ele>
        <time>2014-12-29T14:52:01.000Z</time>
      </trkpt>
      <trkpt lat="43.71289" lon="7.08881">
        <ele>241.80000305176</ele>
        <time>2014-12-29T14:52:02.000Z</time>
      </trkpt>
      <trkpt lat="43.71292" lon="7.08881">
        <ele>241.39999389648</ele>
        <time>2014-12-29T14:52:03.000Z</time>
      </trkpt>
      <trkpt lat="43.71294" lon="7.08882">
        <ele>241</ele>
        <time>2014-12-29T14:52:04.000Z</time>
      </trkpt>
      <trkpt lat="43.71309" lon="7.08883">
        <ele>241</ele>
        <time>2014-12-29T14:52:09.000Z</time>
      </trkpt>
      <trkpt lat="43.7132" lon="7.08888">
        <ele>241</ele>
        <time>2014-12-29T14:52:14.000Z</time>
      </trkpt>
      <trkpt lat="43.71331" lon="7.0889">
        <ele>241</ele>
        <time>2014-12-29T14:52:19.000Z</time>
      </trkpt>
      <trkpt lat="43.71335" lon="7.08888">
        <ele>241</ele>
        <time>2014-12-29T14:52:21.000Z</time>
      </trkpt>
      <trkpt lat="43.71337" lon="7.08884">
        <ele>241</ele>
        <time>2014-12-29T14:52:23.000Z</time>
      </trkpt>
      <trkpt lat="43.71341" lon="7.08861">
        <ele>241</ele>
        <time>2014-12-29T14:52:31.000Z</time>
      </trkpt>
      <trkpt lat="43.71338" lon="7.08843">
        <ele>241</ele>
        <time>2014-12-29T14:52:37.000Z</time>
      </trkpt>
      <trkpt lat="43.71337" lon="7.08839">
        <ele>241</ele>
        <time>2014-12-29T14:52:39.000Z</time>
      </trkpt>
    </trkseg>
  </trk>
</gpx>